<?xml version="1.0" encoding="utf-8"?>
<gpx xmlns:xsi="http://www.w3.org/2001/XMLSchema-instance" xmlns:xsd="http://www.w3.org/2001/XMLSchema" version="1.1" creator="Shapelink.com" xmlns="http://www.topografix.com/GPX/1/1" xmlns:gpxtpx="http://www.garmin.com/xmlschemas/TrackPointExtension/v1">
  <metadata>
    <name>Cykling 12.27 km, 2013-08-20</name>
    <desc></desc>
    <author><name>Alexander Engvall</name></author> 
    <time>2013-08-20T17:42:35Z</time>
  </metadata>
  <trk>
    <name>Cykling 12.27 km, 2013-08-20</name>
    <trkseg>
      <trkpt lat="59.332357481435" lon="18.05739706718">
        <ele>0</ele>
        <time>2013-08-20T17:42:35Z</time>
      </trkpt>
      <trkpt lat="59.332325378758" lon="18.057504942233">
        <ele>0</ele>
        <time>2013-08-20T17:42:37Z</time>
      </trkpt>
      <trkpt lat="59.33230090361" lon="18.057534949435">
        <ele>0.8</ele>
        <time>2013-08-20T17:42:38Z</time>
      </trkpt>
      <trkpt lat="59.332257820644" lon="18.057561771515">
        <ele>1.8</ele>
        <time>2013-08-20T17:42:39Z</time>
      </trkpt>
      <trkpt lat="59.332225885605" lon="18.057590186156">
        <ele>3</ele>
        <time>2013-08-20T17:42:40Z</time>
      </trkpt>
      <trkpt lat="59.332115412163" lon="18.057711639887">
        <ele>3</ele>
        <time>2013-08-20T17:42:44Z</time>
      </trkpt>
      <trkpt lat="59.332021534883" lon="18.05786310082">
        <ele>3</ele>
        <time>2013-08-20T17:42:49Z</time>
      </trkpt>
      <trkpt lat="59.331905361749" lon="18.05797290371">
        <ele>3</ele>
        <time>2013-08-20T17:42:53Z</time>
      </trkpt>
      <trkpt lat="59.331793882479" lon="18.058099638038">
        <ele>3</ele>
        <time>2013-08-20T17:42:55Z</time>
      </trkpt>
      <trkpt lat="59.331731688781" lon="18.058164765401">
        <ele>3</ele>
        <time>2013-08-20T17:42:56Z</time>
      </trkpt>
      <trkpt lat="59.331408817993" lon="18.058448660354">
        <ele>3</ele>
        <time>2013-08-20T17:43:01Z</time>
      </trkpt>
      <trkpt lat="59.331188541661" lon="18.058661309157">
        <ele>3</ele>
        <time>2013-08-20T17:43:06Z</time>
      </trkpt>
      <trkpt lat="59.331047055189" lon="18.058710007996">
        <ele>3</ele>
        <time>2013-08-20T17:43:10Z</time>
      </trkpt>
      <trkpt lat="59.330858713896" lon="18.058847219699">
        <ele>3</ele>
        <time>2013-08-20T17:43:16Z</time>
      </trkpt>
      <trkpt lat="59.330687471679" lon="18.059028855472">
        <ele>3</ele>
        <time>2013-08-20T17:43:21Z</time>
      </trkpt>
      <trkpt lat="59.330502231689" lon="18.059243013017">
        <ele>3</ele>
        <time>2013-08-20T17:43:26Z</time>
      </trkpt>
      <trkpt lat="59.330279105511" lon="18.059455913277">
        <ele>3</ele>
        <time>2013-08-20T17:43:30Z</time>
      </trkpt>
      <trkpt lat="59.329946176443" lon="18.059775515124">
        <ele>3</ele>
        <time>2013-08-20T17:43:36Z</time>
      </trkpt>
      <trkpt lat="59.329698994212" lon="18.060006436469">
        <ele>1.8</ele>
        <time>2013-08-20T17:43:42Z</time>
      </trkpt>
      <trkpt lat="59.329648954269" lon="18.06004490939">
        <ele>0.8</ele>
        <time>2013-08-20T17:43:43Z</time>
      </trkpt>
      <trkpt lat="59.329598662869" lon="18.06008346613">
        <ele>0</ele>
        <time>2013-08-20T17:43:44Z</time>
      </trkpt>
      <trkpt lat="59.329540241026" lon="18.060112635142">
        <ele>0</ele>
        <time>2013-08-20T17:43:45Z</time>
      </trkpt>
      <trkpt lat="59.329481316269" lon="18.060142474706">
        <ele>0</ele>
        <time>2013-08-20T17:43:46Z</time>
      </trkpt>
      <trkpt lat="59.329430354317" lon="18.06017985798">
        <ele>0</ele>
        <time>2013-08-20T17:43:47Z</time>
      </trkpt>
      <trkpt lat="59.329387103713" lon="18.060242051678">
        <ele>0</ele>
        <time>2013-08-20T17:43:48Z</time>
      </trkpt>
      <trkpt lat="59.329262381041" lon="18.060380855942">
        <ele>0</ele>
        <time>2013-08-20T17:43:50Z</time>
      </trkpt>
      <trkpt lat="59.328959291537" lon="18.060617560798">
        <ele>0</ele>
        <time>2013-08-20T17:43:54Z</time>
      </trkpt>
      <trkpt lat="59.328886871921" lon="18.060658715927">
        <ele>0</ele>
        <time>2013-08-20T17:43:55Z</time>
      </trkpt>
      <trkpt lat="59.328826186965" lon="18.060715377571">
        <ele>0</ele>
        <time>2013-08-20T17:43:56Z</time>
      </trkpt>
      <trkpt lat="59.328782768723" lon="18.060755023958">
        <ele>0</ele>
        <time>2013-08-20T17:43:57Z</time>
      </trkpt>
      <trkpt lat="59.328739350481" lon="18.060794167431">
        <ele>0</ele>
        <time>2013-08-20T17:43:58Z</time>
      </trkpt>
      <trkpt lat="59.328695429325" lon="18.060823168805">
        <ele>0</ele>
        <time>2013-08-20T17:43:59Z</time>
      </trkpt>
      <trkpt lat="59.328648490685" lon="18.060837334216">
        <ele>0</ele>
        <time>2013-08-20T17:44:00Z</time>
      </trkpt>
      <trkpt lat="59.328608089927" lon="18.060838842958">
        <ele>0</ele>
        <time>2013-08-20T17:44:01Z</time>
      </trkpt>
      <trkpt lat="59.328571209567" lon="18.06083448437">
        <ele>0</ele>
        <time>2013-08-20T17:44:02Z</time>
      </trkpt>
      <trkpt lat="59.328527036954" lon="18.0608068241">
        <ele>0</ele>
        <time>2013-08-20T17:44:03Z</time>
      </trkpt>
      <trkpt lat="59.328414887132" lon="18.060663996524">
        <ele>0</ele>
        <time>2013-08-20T17:44:05Z</time>
      </trkpt>
      <trkpt lat="59.328371971804" lon="18.060538184205">
        <ele>0</ele>
        <time>2013-08-20T17:44:06Z</time>
      </trkpt>
      <trkpt lat="59.32834380862" lon="18.060392171507">
        <ele>0</ele>
        <time>2013-08-20T17:44:07Z</time>
      </trkpt>
      <trkpt lat="59.328317992368" lon="18.060228473">
        <ele>0</ele>
        <time>2013-08-20T17:44:08Z</time>
      </trkpt>
      <trkpt lat="59.328293349582" lon="18.06007005509">
        <ele>0</ele>
        <time>2013-08-20T17:44:09Z</time>
      </trkpt>
      <trkpt lat="59.32826837152" lon="18.059906524221">
        <ele>0</ele>
        <time>2013-08-20T17:44:10Z</time>
      </trkpt>
      <trkpt lat="59.328244315467" lon="18.059734276176">
        <ele>0</ele>
        <time>2013-08-20T17:44:11Z</time>
      </trkpt>
      <trkpt lat="59.328218834491" lon="18.059548868548">
        <ele>0</ele>
        <time>2013-08-20T17:44:12Z</time>
      </trkpt>
      <trkpt lat="59.328150438187" lon="18.059041428322">
        <ele>0</ele>
        <time>2013-08-20T17:44:15Z</time>
      </trkpt>
      <trkpt lat="59.328151360196" lon="18.058779410128">
        <ele>0</ele>
        <time>2013-08-20T17:44:17Z</time>
      </trkpt>
      <trkpt lat="59.3281694651" lon="18.058667092668">
        <ele>0</ele>
        <time>2013-08-20T17:44:18Z</time>
      </trkpt>
      <trkpt lat="59.32829686998" lon="18.058314382316">
        <ele>0</ele>
        <time>2013-08-20T17:44:22Z</time>
      </trkpt>
      <trkpt lat="59.328337186919" lon="18.058240370139">
        <ele>0</ele>
        <time>2013-08-20T17:44:23Z</time>
      </trkpt>
      <trkpt lat="59.328376917125" lon="18.058171890016">
        <ele>0</ele>
        <time>2013-08-20T17:44:24Z</time>
      </trkpt>
      <trkpt lat="59.328415641503" lon="18.058103074617">
        <ele>0</ele>
        <time>2013-08-20T17:44:25Z</time>
      </trkpt>
      <trkpt lat="59.328449504379" lon="18.058042054385">
        <ele>0</ele>
        <time>2013-08-20T17:44:26Z</time>
      </trkpt>
      <trkpt lat="59.328476829373" lon="18.057968545122">
        <ele>0</ele>
        <time>2013-08-20T17:44:27Z</time>
      </trkpt>
      <trkpt lat="59.328480349771" lon="18.057900232637">
        <ele>0</ele>
        <time>2013-08-20T17:44:28Z</time>
      </trkpt>
      <trkpt lat="59.328489234585" lon="18.057827645383">
        <ele>0</ele>
        <time>2013-08-20T17:44:29Z</time>
      </trkpt>
      <trkpt lat="59.328490743327" lon="18.057750280446">
        <ele>0</ele>
        <time>2013-08-20T17:44:30Z</time>
      </trkpt>
      <trkpt lat="59.328491749155" lon="18.057679369572">
        <ele>0</ele>
        <time>2013-08-20T17:44:31Z</time>
      </trkpt>
      <trkpt lat="59.328473644251" lon="18.057612984924">
        <ele>0</ele>
        <time>2013-08-20T17:44:32Z</time>
      </trkpt>
      <trkpt lat="59.328413043114" lon="18.057490273908">
        <ele>0</ele>
        <time>2013-08-20T17:44:34Z</time>
      </trkpt>
      <trkpt lat="59.328268622977" lon="18.057274775259">
        <ele>0</ele>
        <time>2013-08-20T17:44:38Z</time>
      </trkpt>
      <trkpt lat="59.328231072065" lon="18.056935392128">
        <ele>0</ele>
        <time>2013-08-20T17:44:41Z</time>
      </trkpt>
      <trkpt lat="59.328224366545" lon="18.056786697222">
        <ele>0</ele>
        <time>2013-08-20T17:44:42Z</time>
      </trkpt>
      <trkpt lat="59.328213470075" lon="18.056680163273">
        <ele>0</ele>
        <time>2013-08-20T17:44:43Z</time>
      </trkpt>
      <trkpt lat="59.328200897225" lon="18.056566756166">
        <ele>0</ele>
        <time>2013-08-20T17:44:44Z</time>
      </trkpt>
      <trkpt lat="59.328191928592" lon="18.05645577981">
        <ele>0</ele>
        <time>2013-08-20T17:44:45Z</time>
      </trkpt>
      <trkpt lat="59.328181367398" lon="18.05634346235">
        <ele>0</ele>
        <time>2013-08-20T17:44:46Z</time>
      </trkpt>
      <trkpt lat="59.328170135652" lon="18.0562219248">
        <ele>0</ele>
        <time>2013-08-20T17:44:47Z</time>
      </trkpt>
      <trkpt lat="59.328157562802" lon="18.056096699214">
        <ele>0</ele>
        <time>2013-08-20T17:44:48Z</time>
      </trkpt>
      <trkpt lat="59.328117329682" lon="18.055679699689">
        <ele>0</ele>
        <time>2013-08-20T17:44:51Z</time>
      </trkpt>
      <trkpt lat="59.328090088507" lon="18.055392787252">
        <ele>0</ele>
        <time>2013-08-20T17:44:53Z</time>
      </trkpt>
      <trkpt lat="59.328081538969" lon="18.055262448707">
        <ele>0</ele>
        <time>2013-08-20T17:44:54Z</time>
      </trkpt>
      <trkpt lat="59.328073324707" lon="18.055128589764">
        <ele>0</ele>
        <time>2013-08-20T17:44:55Z</time>
      </trkpt>
      <trkpt lat="59.328062009142" lon="18.054999089409">
        <ele>0</ele>
        <time>2013-08-20T17:44:56Z</time>
      </trkpt>
      <trkpt lat="59.328046334989" lon="18.054861877706">
        <ele>0</ele>
        <time>2013-08-20T17:44:57Z</time>
      </trkpt>
      <trkpt lat="59.327973580097" lon="18.054185709833">
        <ele>0</ele>
        <time>2013-08-20T17:45:02Z</time>
      </trkpt>
      <trkpt lat="59.327911134942" lon="18.053457825637">
        <ele>0</ele>
        <time>2013-08-20T17:45:08Z</time>
      </trkpt>
      <trkpt lat="59.327888419993" lon="18.053262527367">
        <ele>0</ele>
        <time>2013-08-20T17:45:10Z</time>
      </trkpt>
      <trkpt lat="59.327763026769" lon="18.052858352149">
        <ele>0</ele>
        <time>2013-08-20T17:45:14Z</time>
      </trkpt>
      <trkpt lat="59.327618438994" lon="18.052844270557">
        <ele>0</ele>
        <time>2013-08-20T17:45:16Z</time>
      </trkpt>
      <trkpt lat="59.327425739113" lon="18.052923982426">
        <ele>0</ele>
        <time>2013-08-20T17:45:19Z</time>
      </trkpt>
      <trkpt lat="59.327360276474" lon="18.052949379583">
        <ele>0</ele>
        <time>2013-08-20T17:45:20Z</time>
      </trkpt>
      <trkpt lat="59.327176629045" lon="18.052966813935">
        <ele>0</ele>
        <time>2013-08-20T17:45:23Z</time>
      </trkpt>
      <trkpt lat="59.327143436721" lon="18.052900680744">
        <ele>0</ele>
        <time>2013-08-20T17:45:24Z</time>
      </trkpt>
      <trkpt lat="59.327113429519" lon="18.05266045549">
        <ele>0</ele>
        <time>2013-08-20T17:45:26Z</time>
      </trkpt>
      <trkpt lat="59.327097336271" lon="18.052532882972">
        <ele>0</ele>
        <time>2013-08-20T17:45:27Z</time>
      </trkpt>
      <trkpt lat="59.327035729306" lon="18.05197649245">
        <ele>0</ele>
        <time>2013-08-20T17:45:31Z</time>
      </trkpt>
      <trkpt lat="59.326955179247" lon="18.050971083545">
        <ele>0</ele>
        <time>2013-08-20T17:45:38Z</time>
      </trkpt>
      <trkpt lat="59.326855434637" lon="18.050355097714">
        <ele>0</ele>
        <time>2013-08-20T17:45:43Z</time>
      </trkpt>
      <trkpt lat="59.326830372756" lon="18.050243702263">
        <ele>0</ele>
        <time>2013-08-20T17:45:44Z</time>
      </trkpt>
      <trkpt lat="59.326771196542" lon="18.049919993285">
        <ele>0</ele>
        <time>2013-08-20T17:45:47Z</time>
      </trkpt>
      <trkpt lat="59.326768262877" lon="18.049806921454">
        <ele>0</ele>
        <time>2013-08-20T17:45:48Z</time>
      </trkpt>
      <trkpt lat="59.32674621848" lon="18.049145757182">
        <ele>0</ele>
        <time>2013-08-20T17:45:53Z</time>
      </trkpt>
      <trkpt lat="59.326728113576" lon="18.048877033468">
        <ele>0</ele>
        <time>2013-08-20T17:45:55Z</time>
      </trkpt>
      <trkpt lat="59.326719815495" lon="18.048738983575">
        <ele>0</ele>
        <time>2013-08-20T17:45:56Z</time>
      </trkpt>
      <trkpt lat="59.326717384744" lon="18.048603699709">
        <ele>0</ele>
        <time>2013-08-20T17:45:57Z</time>
      </trkpt>
      <trkpt lat="59.326719731676" lon="18.048460788314">
        <ele>0</ele>
        <time>2013-08-20T17:45:58Z</time>
      </trkpt>
      <trkpt lat="59.326716211278" lon="18.048327683742">
        <ele>0</ele>
        <time>2013-08-20T17:45:59Z</time>
      </trkpt>
      <trkpt lat="59.32671688183" lon="18.048048901748">
        <ele>0</ele>
        <time>2013-08-20T17:46:01Z</time>
      </trkpt>
      <trkpt lat="59.326713948165" lon="18.047617401536">
        <ele>0</ele>
        <time>2013-08-20T17:46:04Z</time>
      </trkpt>
      <trkpt lat="59.326685282067" lon="18.046478468964">
        <ele>0</ele>
        <time>2013-08-20T17:46:12Z</time>
      </trkpt>
      <trkpt lat="59.326684527696" lon="18.046346202582">
        <ele>0</ele>
        <time>2013-08-20T17:46:13Z</time>
      </trkpt>
      <trkpt lat="59.326666758068" lon="18.04619549602">
        <ele>0</ele>
        <time>2013-08-20T17:46:14Z</time>
      </trkpt>
      <trkpt lat="59.32664312111" lon="18.045750500949">
        <ele>0</ele>
        <time>2013-08-20T17:46:17Z</time>
      </trkpt>
      <trkpt lat="59.326675475244" lon="18.045345487541">
        <ele>0</ele>
        <time>2013-08-20T17:46:20Z</time>
      </trkpt>
      <trkpt lat="59.326671451932" lon="18.045207772924">
        <ele>0</ele>
        <time>2013-08-20T17:46:21Z</time>
      </trkpt>
      <trkpt lat="59.326674804692" lon="18.044580890623">
        <ele>0</ele>
        <time>2013-08-20T17:46:26Z</time>
      </trkpt>
      <trkpt lat="59.326686623171" lon="18.043732642343">
        <ele>0</ele>
        <time>2013-08-20T17:46:32Z</time>
      </trkpt>
      <trkpt lat="59.326679750013" lon="18.043607332938">
        <ele>0</ele>
        <time>2013-08-20T17:46:33Z</time>
      </trkpt>
      <trkpt lat="59.326689892112" lon="18.043322515976">
        <ele>0</ele>
        <time>2013-08-20T17:46:35Z</time>
      </trkpt>
      <trkpt lat="59.326694502157" lon="18.043193015621">
        <ele>0</ele>
        <time>2013-08-20T17:46:36Z</time>
      </trkpt>
      <trkpt lat="59.326691903768" lon="18.043055803918">
        <ele>0</ele>
        <time>2013-08-20T17:46:37Z</time>
      </trkpt>
      <trkpt lat="59.326686120257" lon="18.042528666227">
        <ele>0</ele>
        <time>2013-08-20T17:46:41Z</time>
      </trkpt>
      <trkpt lat="59.326653011752" lon="18.042227169284">
        <ele>0</ele>
        <time>2013-08-20T17:46:44Z</time>
      </trkpt>
      <trkpt lat="59.326630380622" lon="18.042104374449">
        <ele>0</ele>
        <time>2013-08-20T17:46:45Z</time>
      </trkpt>
      <trkpt lat="59.326505406493" lon="18.041627192882">
        <ele>0</ele>
        <time>2013-08-20T17:46:49Z</time>
      </trkpt>
      <trkpt lat="59.326546645441" lon="18.041245313518">
        <ele>0</ele>
        <time>2013-08-20T17:46:52Z</time>
      </trkpt>
      <trkpt lat="59.326622669274" lon="18.04061985614">
        <ele>0</ele>
        <time>2013-08-20T17:46:58Z</time>
      </trkpt>
      <trkpt lat="59.326650497182" lon="18.040548358533">
        <ele>0</ele>
        <time>2013-08-20T17:46:59Z</time>
      </trkpt>
      <trkpt lat="59.326716798011" lon="18.040416762703">
        <ele>0</ele>
        <time>2013-08-20T17:47:01Z</time>
      </trkpt>
      <trkpt lat="59.326733394173" lon="18.040331099685">
        <ele>0</ele>
        <time>2013-08-20T17:47:02Z</time>
      </trkpt>
      <trkpt lat="59.326774297845" lon="18.040079139771">
        <ele>0</ele>
        <time>2013-08-20T17:47:05Z</time>
      </trkpt>
      <trkpt lat="59.32678728979" lon="18.040003199757">
        <ele>0</ele>
        <time>2013-08-20T17:47:06Z</time>
      </trkpt>
      <trkpt lat="59.326801622839" lon="18.039953914185">
        <ele>0</ele>
        <time>2013-08-20T17:47:07Z</time>
      </trkpt>
      <trkpt lat="59.326833557878" lon="18.039807985306">
        <ele>0</ele>
        <time>2013-08-20T17:47:09Z</time>
      </trkpt>
      <trkpt lat="59.326896589766" lon="18.039408084857">
        <ele>0</ele>
        <time>2013-08-20T17:47:13Z</time>
      </trkpt>
      <trkpt lat="59.326972781237" lon="18.038940877751">
        <ele>0</ele>
        <time>2013-08-20T17:47:17Z</time>
      </trkpt>
      <trkpt lat="59.326983342431" lon="18.038818921106">
        <ele>0</ele>
        <time>2013-08-20T17:47:18Z</time>
      </trkpt>
      <trkpt lat="59.327068334897" lon="18.038430587679">
        <ele>0</ele>
        <time>2013-08-20T17:47:21Z</time>
      </trkpt>
      <trkpt lat="59.327091804217" lon="18.03827795328">
        <ele>0</ele>
        <time>2013-08-20T17:47:22Z</time>
      </trkpt>
      <trkpt lat="59.327165397299" lon="18.037846369249">
        <ele>0</ele>
        <time>2013-08-20T17:47:25Z</time>
      </trkpt>
      <trkpt lat="59.327200098365" lon="18.037542525374">
        <ele>0</ele>
        <time>2013-08-20T17:47:27Z</time>
      </trkpt>
      <trkpt lat="59.327240918218" lon="18.037315794979">
        <ele>0</ele>
        <time>2013-08-20T17:47:29Z</time>
      </trkpt>
      <trkpt lat="59.32730277664" lon="18.036946656103">
        <ele>0</ele>
        <time>2013-08-20T17:47:33Z</time>
      </trkpt>
      <trkpt lat="59.327384332527" lon="18.036398647481">
        <ele>0</ele>
        <time>2013-08-20T17:47:37Z</time>
      </trkpt>
      <trkpt lat="59.327484160956" lon="18.035766065488">
        <ele>0</ele>
        <time>2013-08-20T17:47:42Z</time>
      </trkpt>
      <trkpt lat="59.327572506182" lon="18.035079252602">
        <ele>0</ele>
        <time>2013-08-20T17:47:47Z</time>
      </trkpt>
      <trkpt lat="59.327594969674" lon="18.034937514673">
        <ele>0</ele>
        <time>2013-08-20T17:47:48Z</time>
      </trkpt>
      <trkpt lat="59.327680716511" lon="18.034411885724">
        <ele>0</ele>
        <time>2013-08-20T17:47:52Z</time>
      </trkpt>
      <trkpt lat="59.327796889645" lon="18.033742255733">
        <ele>0</ele>
        <time>2013-08-20T17:47:57Z</time>
      </trkpt>
      <trkpt lat="59.327905602888" lon="18.033025268007">
        <ele>0</ele>
        <time>2013-08-20T17:48:02Z</time>
      </trkpt>
      <trkpt lat="59.327942650886" lon="18.032796274499">
        <ele>0</ele>
        <time>2013-08-20T17:48:04Z</time>
      </trkpt>
      <trkpt lat="59.327991852639" lon="18.032455131169">
        <ele>0</ele>
        <time>2013-08-20T17:48:07Z</time>
      </trkpt>
      <trkpt lat="59.32803284013" lon="18.031951965712">
        <ele>0</ele>
        <time>2013-08-20T17:48:12Z</time>
      </trkpt>
      <trkpt lat="59.328082041883" lon="18.031487105538">
        <ele>0</ele>
        <time>2013-08-20T17:48:16Z</time>
      </trkpt>
      <trkpt lat="59.32814264302" lon="18.031040266449">
        <ele>0</ele>
        <time>2013-08-20T17:48:20Z</time>
      </trkpt>
      <trkpt lat="59.328140547545" lon="18.030933313405">
        <ele>0</ele>
        <time>2013-08-20T17:48:21Z</time>
      </trkpt>
      <trkpt lat="59.328198047379" lon="18.0304643461">
        <ele>0</ele>
        <time>2013-08-20T17:48:26Z</time>
      </trkpt>
      <trkpt lat="59.32822646202" lon="18.030311879339">
        <ele>0</ele>
        <time>2013-08-20T17:48:28Z</time>
      </trkpt>
      <trkpt lat="59.328252865005" lon="18.030065032384">
        <ele>0</ele>
        <time>2013-08-20T17:48:31Z</time>
      </trkpt>
      <trkpt lat="59.328277926886" lon="18.029861184576">
        <ele>0</ele>
        <time>2013-08-20T17:48:34Z</time>
      </trkpt>
      <trkpt lat="59.328277507791" lon="18.029808294787">
        <ele>0</ele>
        <time>2013-08-20T17:48:35Z</time>
      </trkpt>
      <trkpt lat="59.328275831411" lon="18.029724475787">
        <ele>0</ele>
        <time>2013-08-20T17:48:37Z</time>
      </trkpt>
      <trkpt lat="59.328307682631" lon="18.029602854418">
        <ele>0</ele>
        <time>2013-08-20T17:48:39Z</time>
      </trkpt>
      <trkpt lat="59.328367445578" lon="18.029377716584">
        <ele>0</ele>
        <time>2013-08-20T17:48:42Z</time>
      </trkpt>
      <trkpt lat="59.328385634301" lon="18.029300686923">
        <ele>0</ele>
        <time>2013-08-20T17:48:43Z</time>
      </trkpt>
      <trkpt lat="59.328398626246" lon="18.029215359181">
        <ele>0</ele>
        <time>2013-08-20T17:48:44Z</time>
      </trkpt>
      <trkpt lat="59.328476494097" lon="18.028832893084">
        <ele>0</ele>
        <time>2013-08-20T17:48:48Z</time>
      </trkpt>
      <trkpt lat="59.328604401891" lon="18.028234173967">
        <ele>0</ele>
        <time>2013-08-20T17:48:53Z</time>
      </trkpt>
      <trkpt lat="59.328717725179" lon="18.02773519946">
        <ele>0</ele>
        <time>2013-08-20T17:48:57Z</time>
      </trkpt>
      <trkpt lat="59.32876206543" lon="18.027615505928">
        <ele>0</ele>
        <time>2013-08-20T17:48:58Z</time>
      </trkpt>
      <trkpt lat="59.328990472205" lon="18.026860296738">
        <ele>0</ele>
        <time>2013-08-20T17:49:04Z</time>
      </trkpt>
      <trkpt lat="59.329194822927" lon="18.026110535783">
        <ele>0</ele>
        <time>2013-08-20T17:49:10Z</time>
      </trkpt>
      <trkpt lat="59.329397664907" lon="18.025374102049">
        <ele>0</ele>
        <time>2013-08-20T17:49:16Z</time>
      </trkpt>
      <trkpt lat="59.329573349531" lon="18.02473783202">
        <ele>0</ele>
        <time>2013-08-20T17:49:21Z</time>
      </trkpt>
      <trkpt lat="59.329822208142" lon="18.023956219845">
        <ele>0</ele>
        <time>2013-08-20T17:49:28Z</time>
      </trkpt>
      <trkpt lat="59.330002670449" lon="18.023326571517">
        <ele>0</ele>
        <time>2013-08-20T17:49:34Z</time>
      </trkpt>
      <trkpt lat="59.330052123659" lon="18.02315281473">
        <ele>0</ele>
        <time>2013-08-20T17:49:36Z</time>
      </trkpt>
      <trkpt lat="59.330134517736" lon="18.022859783506">
        <ele>0</ele>
        <time>2013-08-20T17:49:39Z</time>
      </trkpt>
      <trkpt lat="59.330311543464" lon="18.022154278983">
        <ele>0</ele>
        <time>2013-08-20T17:49:45Z</time>
      </trkpt>
      <trkpt lat="59.330321182649" lon="18.022039446953">
        <ele>0</ele>
        <time>2013-08-20T17:49:46Z</time>
      </trkpt>
      <trkpt lat="59.330274914561" lon="18.021801903907">
        <ele>0</ele>
        <time>2013-08-20T17:49:48Z</time>
      </trkpt>
      <trkpt lat="59.330166536594" lon="18.02148481663">
        <ele>0</ele>
        <time>2013-08-20T17:49:51Z</time>
      </trkpt>
      <trkpt lat="59.330129656234" lon="18.021382222174">
        <ele>0</ele>
        <time>2013-08-20T17:49:52Z</time>
      </trkpt>
      <trkpt lat="59.330048603261" lon="18.021097489031">
        <ele>0</ele>
        <time>2013-08-20T17:49:55Z</time>
      </trkpt>
      <trkpt lat="59.33004617251" lon="18.021026829614">
        <ele>0</ele>
        <time>2013-08-20T17:49:56Z</time>
      </trkpt>
      <trkpt lat="59.330072491676" lon="18.020633886142">
        <ele>0</ele>
        <time>2013-08-20T17:50:01Z</time>
      </trkpt>
      <trkpt lat="59.330113479167" lon="18.020567082399">
        <ele>0</ele>
        <time>2013-08-20T17:50:02Z</time>
      </trkpt>
      <trkpt lat="59.330085986535" lon="18.020405144091">
        <ele>0</ele>
        <time>2013-08-20T17:50:04Z</time>
      </trkpt>
      <trkpt lat="59.330081292671" lon="18.020327946792">
        <ele>0</ele>
        <time>2013-08-20T17:50:05Z</time>
      </trkpt>
      <trkpt lat="59.330050279641" lon="18.020249911303">
        <ele>0</ele>
        <time>2013-08-20T17:50:06Z</time>
      </trkpt>
      <trkpt lat="59.330024798665" lon="18.020167517226">
        <ele>0</ele>
        <time>2013-08-20T17:50:07Z</time>
      </trkpt>
      <trkpt lat="59.329984062631" lon="18.020094762334">
        <ele>0</ele>
        <time>2013-08-20T17:50:08Z</time>
      </trkpt>
      <trkpt lat="59.329910804825" lon="18.020008344945">
        <ele>0</ele>
        <time>2013-08-20T17:50:10Z</time>
      </trkpt>
      <trkpt lat="59.329874762655" lon="18.020003483443">
        <ele>0</ele>
        <time>2013-08-20T17:50:11Z</time>
      </trkpt>
      <trkpt lat="59.329833104612" lon="18.020021923623">
        <ele>0</ele>
        <time>2013-08-20T17:50:12Z</time>
      </trkpt>
      <trkpt lat="59.329792536216" lon="18.020027790953">
        <ele>0</ele>
        <time>2013-08-20T17:50:13Z</time>
      </trkpt>
      <trkpt lat="59.329753308924" lon="18.020014463732">
        <ele>0</ele>
        <time>2013-08-20T17:50:14Z</time>
      </trkpt>
      <trkpt lat="59.329716093288" lon="18.019969536748">
        <ele>0</ele>
        <time>2013-08-20T17:50:15Z</time>
      </trkpt>
      <trkpt lat="59.329604027285" lon="18.019787398061">
        <ele>0</ele>
        <time>2013-08-20T17:50:18Z</time>
      </trkpt>
      <trkpt lat="59.329431695421" lon="18.019478441227">
        <ele>0</ele>
        <time>2013-08-20T17:50:22Z</time>
      </trkpt>
      <trkpt lat="59.329385762609" lon="18.019403842317">
        <ele>0</ele>
        <time>2013-08-20T17:50:23Z</time>
      </trkpt>
      <trkpt lat="59.32934712205" lon="18.01933150652">
        <ele>0</ele>
        <time>2013-08-20T17:50:24Z</time>
      </trkpt>
      <trkpt lat="59.329288029655" lon="18.01925020209">
        <ele>0</ele>
        <time>2013-08-20T17:50:25Z</time>
      </trkpt>
      <trkpt lat="59.329249808191" lon="18.01915883938">
        <ele>0</ele>
        <time>2013-08-20T17:50:26Z</time>
      </trkpt>
      <trkpt lat="59.329099185448" lon="18.018975024313">
        <ele>0</ele>
        <time>2013-08-20T17:50:29Z</time>
      </trkpt>
      <trkpt lat="59.329043361994" lon="18.018950213889">
        <ele>0.4</ele>
        <time>2013-08-20T17:50:30Z</time>
      </trkpt>
      <trkpt lat="59.328988209092" lon="18.018939401238">
        <ele>0.8</ele>
        <time>2013-08-20T17:50:31Z</time>
      </trkpt>
      <trkpt lat="59.328934900208" lon="18.01892917532">
        <ele>1.2</ele>
        <time>2013-08-20T17:50:32Z</time>
      </trkpt>
      <trkpt lat="59.328891901061" lon="18.018913333529">
        <ele>1.8</ele>
        <time>2013-08-20T17:50:33Z</time>
      </trkpt>
      <trkpt lat="59.328782601085" lon="18.018885757078">
        <ele>1.8</ele>
        <time>2013-08-20T17:50:35Z</time>
      </trkpt>
      <trkpt lat="59.328731471495" lon="18.018878129549">
        <ele>1.8</ele>
        <time>2013-08-20T17:50:36Z</time>
      </trkpt>
      <trkpt lat="59.328675061308" lon="18.018857342437">
        <ele>1.8</ele>
        <time>2013-08-20T17:50:37Z</time>
      </trkpt>
      <trkpt lat="59.328583279503" lon="18.018842422655">
        <ele>1.8</ele>
        <time>2013-08-20T17:50:40Z</time>
      </trkpt>
      <trkpt lat="59.328562660029" lon="18.018839740447">
        <ele>2.2</ele>
        <time>2013-08-20T17:50:41Z</time>
      </trkpt>
      <trkpt lat="59.328535586492" lon="18.018839405171">
        <ele>2.6</ele>
        <time>2013-08-20T17:50:42Z</time>
      </trkpt>
      <trkpt lat="59.328504908738" lon="18.018832364375">
        <ele>3</ele>
        <time>2013-08-20T17:50:43Z</time>
      </trkpt>
      <trkpt lat="59.328461741953" lon="18.018776876197">
        <ele>3.6</ele>
        <time>2013-08-20T17:50:44Z</time>
      </trkpt>
      <trkpt lat="59.328415809141" lon="18.018727339168">
        <ele>4</ele>
        <time>2013-08-20T17:50:45Z</time>
      </trkpt>
      <trkpt lat="59.328317992368" lon="18.018625666721">
        <ele>4</ele>
        <time>2013-08-20T17:50:47Z</time>
      </trkpt>
      <trkpt lat="59.328156473155" lon="18.018498597117">
        <ele>4</ele>
        <time>2013-08-20T17:50:50Z</time>
      </trkpt>
      <trkpt lat="59.328044742428" lon="18.018440175274">
        <ele>4</ele>
        <time>2013-08-20T17:50:52Z</time>
      </trkpt>
      <trkpt lat="59.327873081116" lon="18.018334479515">
        <ele>4</ele>
        <time>2013-08-20T17:50:55Z</time>
      </trkpt>
      <trkpt lat="59.327639477563" lon="18.0181680988">
        <ele>4</ele>
        <time>2013-08-20T17:50:59Z</time>
      </trkpt>
      <trkpt lat="59.327459937265" lon="18.018020074446">
        <ele>4</ele>
        <time>2013-08-20T17:51:02Z</time>
      </trkpt>
      <trkpt lat="59.327400090499" lon="18.017943882975">
        <ele>4</ele>
        <time>2013-08-20T17:51:03Z</time>
      </trkpt>
      <trkpt lat="59.327241421132" lon="18.017693515622">
        <ele>4</ele>
        <time>2013-08-20T17:51:06Z</time>
      </trkpt>
      <trkpt lat="59.327209569912" lon="18.017587400768">
        <ele>4</ele>
        <time>2013-08-20T17:51:07Z</time>
      </trkpt>
      <trkpt lat="59.327139413409" lon="18.017381373666">
        <ele>4</ele>
        <time>2013-08-20T17:51:09Z</time>
      </trkpt>
      <trkpt lat="59.327047212509" lon="18.017089180632">
        <ele>4</ele>
        <time>2013-08-20T17:51:12Z</time>
      </trkpt>
      <trkpt lat="59.327001363516" lon="18.016888685584">
        <ele>4</ele>
        <time>2013-08-20T17:51:14Z</time>
      </trkpt>
      <trkpt lat="59.326949563374" lon="18.016586601908">
        <ele>4.4</ele>
        <time>2013-08-20T17:51:17Z</time>
      </trkpt>
      <trkpt lat="59.326944282777" lon="18.016496580302">
        <ele>4.8</ele>
        <time>2013-08-20T17:51:18Z</time>
      </trkpt>
      <trkpt lat="59.326941097655" lon="18.016408402714">
        <ele>5.2</ele>
        <time>2013-08-20T17:51:19Z</time>
      </trkpt>
      <trkpt lat="59.326932967212" lon="18.01630144967">
        <ele>5.6</ele>
        <time>2013-08-20T17:51:20Z</time>
      </trkpt>
      <trkpt lat="59.326929949728" lon="18.016197849386">
        <ele>6</ele>
        <time>2013-08-20T17:51:21Z</time>
      </trkpt>
      <trkpt lat="59.326934978868" lon="18.016101373717">
        <ele>6</ele>
        <time>2013-08-20T17:51:22Z</time>
      </trkpt>
      <trkpt lat="59.326945791519" lon="18.015876152064">
        <ele>6</ele>
        <time>2013-08-20T17:51:24Z</time>
      </trkpt>
      <trkpt lat="59.326971607771" lon="18.015180202907">
        <ele>6</ele>
        <time>2013-08-20T17:51:30Z</time>
      </trkpt>
      <trkpt lat="59.32696498607" lon="18.015058246262">
        <ele>6</ele>
        <time>2013-08-20T17:51:31Z</time>
      </trkpt>
      <trkpt lat="59.326925758778" lon="18.014723640814">
        <ele>6</ele>
        <time>2013-08-20T17:51:34Z</time>
      </trkpt>
      <trkpt lat="59.326810340015" lon="18.014180242237">
        <ele>6</ele>
        <time>2013-08-20T17:51:39Z</time>
      </trkpt>
      <trkpt lat="59.326692490501" lon="18.013572554487">
        <ele>6</ele>
        <time>2013-08-20T17:51:44Z</time>
      </trkpt>
      <trkpt lat="59.326534072591" lon="18.012902337763">
        <ele>6</ele>
        <time>2013-08-20T17:51:50Z</time>
      </trkpt>
      <trkpt lat="59.326478584413" lon="18.012683151078">
        <ele>5.6</ele>
        <time>2013-08-20T17:51:52Z</time>
      </trkpt>
      <trkpt lat="59.326446397917" lon="18.012563541365">
        <ele>5.2</ele>
        <time>2013-08-20T17:51:53Z</time>
      </trkpt>
      <trkpt lat="59.326415636344" lon="18.012442255272">
        <ele>4.6</ele>
        <time>2013-08-20T17:51:54Z</time>
      </trkpt>
      <trkpt lat="59.326384288038" lon="18.012324321939">
        <ele>4.2</ele>
        <time>2013-08-20T17:51:55Z</time>
      </trkpt>
      <trkpt lat="59.326351514809" lon="18.012200688914">
        <ele>3.8</ele>
        <time>2013-08-20T17:51:56Z</time>
      </trkpt>
      <trkpt lat="59.326203322817" lon="18.011631474085">
        <ele>3.8</ele>
        <time>2013-08-20T17:52:01Z</time>
      </trkpt>
      <trkpt lat="59.326180356411" lon="18.011508511612">
        <ele>3.8</ele>
        <time>2013-08-20T17:52:02Z</time>
      </trkpt>
      <trkpt lat="59.32605890268" lon="18.011037281194">
        <ele>3.8</ele>
        <time>2013-08-20T17:52:06Z</time>
      </trkpt>
      <trkpt lat="59.325922193891" lon="18.010486758002">
        <ele>3.8</ele>
        <time>2013-08-20T17:52:11Z</time>
      </trkpt>
      <trkpt lat="59.325895790906" lon="18.010380810786">
        <ele>3.8</ele>
        <time>2013-08-20T17:52:12Z</time>
      </trkpt>
      <trkpt lat="59.325733182046" lon="18.0096772341">
        <ele>3.8</ele>
        <time>2013-08-20T17:52:19Z</time>
      </trkpt>
      <trkpt lat="59.325587756081" lon="18.009091171652">
        <ele>3.8</ele>
        <time>2013-08-20T17:52:26Z</time>
      </trkpt>
      <trkpt lat="59.325472337318" lon="18.008558837183">
        <ele>3.8</ele>
        <time>2013-08-20T17:52:32Z</time>
      </trkpt>
      <trkpt lat="59.325501171054" lon="18.008472922708">
        <ele>3.8</ele>
        <time>2013-08-20T17:52:33Z</time>
      </trkpt>
      <trkpt lat="59.325622540966" lon="18.008258346068">
        <ele>3.8</ele>
        <time>2013-08-20T17:52:36Z</time>
      </trkpt>
      <trkpt lat="59.325663360819" lon="18.007912173598">
        <ele>3.8</ele>
        <time>2013-08-20T17:52:39Z</time>
      </trkpt>
      <trkpt lat="59.325665037199" lon="18.007436500773">
        <ele>3.4</ele>
        <time>2013-08-20T17:52:43Z</time>
      </trkpt>
      <trkpt lat="59.325648776313" lon="18.007311275187">
        <ele>3</ele>
        <time>2013-08-20T17:52:44Z</time>
      </trkpt>
      <trkpt lat="59.325629414124" lon="18.007168447611">
        <ele>2.6</ele>
        <time>2013-08-20T17:52:45Z</time>
      </trkpt>
      <trkpt lat="59.325616086903" lon="18.007032409374">
        <ele>2.2</ele>
        <time>2013-08-20T17:52:46Z</time>
      </trkpt>
      <trkpt lat="59.325604938976" lon="18.006893521291">
        <ele>1.8</ele>
        <time>2013-08-20T17:52:47Z</time>
      </trkpt>
      <trkpt lat="59.325589097185" lon="18.006746335127">
        <ele>1.8</ele>
        <time>2013-08-20T17:52:48Z</time>
      </trkpt>
      <trkpt lat="59.325560011992" lon="18.006436623922">
        <ele>1.4</ele>
        <time>2013-08-20T17:52:50Z</time>
      </trkpt>
      <trkpt lat="59.325548612608" lon="18.006272087225">
        <ele>0.8</ele>
        <time>2013-08-20T17:52:51Z</time>
      </trkpt>
      <trkpt lat="59.325544170201" lon="18.006094977678">
        <ele>0.4</ele>
        <time>2013-08-20T17:52:52Z</time>
      </trkpt>
      <trkpt lat="59.325554563757" lon="18.005922897271">
        <ele>0</ele>
        <time>2013-08-20T17:52:53Z</time>
      </trkpt>
      <trkpt lat="59.325568729168" lon="18.005745703905">
        <ele>0</ele>
        <time>2013-08-20T17:52:54Z</time>
      </trkpt>
      <trkpt lat="59.325593455773" lon="18.00557094129">
        <ele>0</ele>
        <time>2013-08-20T17:52:55Z</time>
      </trkpt>
      <trkpt lat="59.32561969112" lon="18.005387629137">
        <ele>0</ele>
        <time>2013-08-20T17:52:56Z</time>
      </trkpt>
      <trkpt lat="59.325646261743" lon="18.005223679173">
        <ele>0</ele>
        <time>2013-08-20T17:52:57Z</time>
      </trkpt>
      <trkpt lat="59.325666881217" lon="18.005053442784">
        <ele>0</ele>
        <time>2013-08-20T17:52:58Z</time>
      </trkpt>
      <trkpt lat="59.325713652219" lon="18.004697882586">
        <ele>0</ele>
        <time>2013-08-20T17:53:00Z</time>
      </trkpt>
      <trkpt lat="59.325742234498" lon="18.004538207391">
        <ele>0</ele>
        <time>2013-08-20T17:53:01Z</time>
      </trkpt>
      <trkpt lat="59.32576637437" lon="18.00438238787">
        <ele>0</ele>
        <time>2013-08-20T17:53:02Z</time>
      </trkpt>
      <trkpt lat="59.325802835635" lon="18.004245008529">
        <ele>0</ele>
        <time>2013-08-20T17:53:03Z</time>
      </trkpt>
      <trkpt lat="59.325833094294" lon="18.004101342763">
        <ele>0</ele>
        <time>2013-08-20T17:53:04Z</time>
      </trkpt>
      <trkpt lat="59.325876596355" lon="18.003805461693">
        <ele>0</ele>
        <time>2013-08-20T17:53:06Z</time>
      </trkpt>
      <trkpt lat="59.325882212228" lon="18.003480160154">
        <ele>0</ele>
        <time>2013-08-20T17:53:08Z</time>
      </trkpt>
      <trkpt lat="59.325809876431" lon="18.003005744614">
        <ele>0</ele>
        <time>2013-08-20T17:53:11Z</time>
      </trkpt>
      <trkpt lat="59.32572446487" lon="18.002726292068">
        <ele>0</ele>
        <time>2013-08-20T17:53:13Z</time>
      </trkpt>
      <trkpt lat="59.325635952006" lon="18.002445163142">
        <ele>0</ele>
        <time>2013-08-20T17:53:15Z</time>
      </trkpt>
      <trkpt lat="59.32542606923" lon="18.001894556131">
        <ele>0</ele>
        <time>2013-08-20T17:53:19Z</time>
      </trkpt>
      <trkpt lat="59.325377286572" lon="18.001773856771">
        <ele>0</ele>
        <time>2013-08-20T17:53:20Z</time>
      </trkpt>
      <trkpt lat="59.325329761199" lon="18.001650810479">
        <ele>0</ele>
        <time>2013-08-20T17:53:21Z</time>
      </trkpt>
      <trkpt lat="59.325281732912" lon="18.001544947082">
        <ele>0</ele>
        <time>2013-08-20T17:53:22Z</time>
      </trkpt>
      <trkpt lat="59.325234039901" lon="18.001431372337">
        <ele>0</ele>
        <time>2013-08-20T17:53:23Z</time>
      </trkpt>
      <trkpt lat="59.325139659707" lon="18.001222327751">
        <ele>0</ele>
        <time>2013-08-20T17:53:25Z</time>
      </trkpt>
      <trkpt lat="59.325094900361" lon="18.00111512325">
        <ele>0</ele>
        <time>2013-08-20T17:53:26Z</time>
      </trkpt>
      <trkpt lat="59.325046285341" lon="18.001015211002">
        <ele>0</ele>
        <time>2013-08-20T17:53:27Z</time>
      </trkpt>
      <trkpt lat="59.32499775414" lon="18.000917645686">
        <ele>0</ele>
        <time>2013-08-20T17:53:28Z</time>
      </trkpt>
      <trkpt lat="59.324945618722" lon="18.000817984895">
        <ele>0</ele>
        <time>2013-08-20T17:53:29Z</time>
      </trkpt>
      <trkpt lat="59.324894908227" lon="18.000722934149">
        <ele>0.4</ele>
        <time>2013-08-20T17:53:30Z</time>
      </trkpt>
      <trkpt lat="59.324843443361" lon="18.00063064943">
        <ele>0.8</ele>
        <time>2013-08-20T17:53:31Z</time>
      </trkpt>
      <trkpt lat="59.324792146133" lon="18.000545573145">
        <ele>1.2</ele>
        <time>2013-08-20T17:53:32Z</time>
      </trkpt>
      <trkpt lat="59.324738585792" lon="18.000458485204">
        <ele>1.8</ele>
        <time>2013-08-20T17:53:33Z</time>
      </trkpt>
      <trkpt lat="59.324689467858" lon="18.00036745777">
        <ele>2.2</ele>
        <time>2013-08-20T17:53:34Z</time>
      </trkpt>
      <trkpt lat="59.324636997164" lon="18.000288751729">
        <ele>2.8</ele>
        <time>2013-08-20T17:53:35Z</time>
      </trkpt>
      <trkpt lat="59.324587124859" lon="18.000199568313">
        <ele>3.4</ele>
        <time>2013-08-20T17:53:36Z</time>
      </trkpt>
      <trkpt lat="59.32453339688" lon="18.000109798164">
        <ele>4</ele>
        <time>2013-08-20T17:53:37Z</time>
      </trkpt>
      <trkpt lat="59.324480339453" lon="18.000021955852">
        <ele>4.6</ele>
        <time>2013-08-20T17:53:38Z</time>
      </trkpt>
      <trkpt lat="59.324426443836" lon="17.99992992259">
        <ele>5.4</ele>
        <time>2013-08-20T17:53:39Z</time>
      </trkpt>
      <trkpt lat="59.324380091929" lon="17.999848199065">
        <ele>5.8</ele>
        <time>2013-08-20T17:53:40Z</time>
      </trkpt>
      <trkpt lat="59.324335332583" lon="17.99978072477">
        <ele>6.2</ele>
        <time>2013-08-20T17:53:41Z</time>
      </trkpt>
      <trkpt lat="59.324290573237" lon="17.999706461136">
        <ele>6.8</ele>
        <time>2013-08-20T17:53:42Z</time>
      </trkpt>
      <trkpt lat="59.324201138364" lon="17.999553072366">
        <ele>7.2</ele>
        <time>2013-08-20T17:53:44Z</time>
      </trkpt>
      <trkpt lat="59.324154199724" lon="17.999472689945">
        <ele>7.6</ele>
        <time>2013-08-20T17:53:45Z</time>
      </trkpt>
      <trkpt lat="59.324103573048" lon="17.999387697479">
        <ele>8.2</ele>
        <time>2013-08-20T17:53:46Z</time>
      </trkpt>
      <trkpt lat="59.324055041847" lon="17.999306393049">
        <ele>8.6</ele>
        <time>2013-08-20T17:53:47Z</time>
      </trkpt>
      <trkpt lat="59.324008103207" lon="17.999225591533">
        <ele>9</ele>
        <time>2013-08-20T17:53:48Z</time>
      </trkpt>
      <trkpt lat="59.32391062171" lon="17.999064156139">
        <ele>9</ele>
        <time>2013-08-20T17:53:50Z</time>
      </trkpt>
      <trkpt lat="59.32375052742" lon="17.998802640859">
        <ele>9</ele>
        <time>2013-08-20T17:53:53Z</time>
      </trkpt>
      <trkpt lat="59.323344172908" lon="17.998097303974">
        <ele>9</ele>
        <time>2013-08-20T17:54:01Z</time>
      </trkpt>
      <trkpt lat="59.323299665019" lon="17.998017759743">
        <ele>9</ele>
        <time>2013-08-20T17:54:02Z</time>
      </trkpt>
      <trkpt lat="59.3230984156" lon="17.997691368557">
        <ele>9</ele>
        <time>2013-08-20T17:54:07Z</time>
      </trkpt>
      <trkpt lat="59.322847712971" lon="17.997219802863">
        <ele>9.4</ele>
        <time>2013-08-20T17:54:13Z</time>
      </trkpt>
      <trkpt lat="59.322811586982" lon="17.997132212008">
        <ele>9.8</ele>
        <time>2013-08-20T17:54:14Z</time>
      </trkpt>
      <trkpt lat="59.3227799034" lon="17.997033221769">
        <ele>10.2</ele>
        <time>2013-08-20T17:54:15Z</time>
      </trkpt>
      <trkpt lat="59.322757439908" lon="17.996924340888">
        <ele>10.6</ele>
        <time>2013-08-20T17:54:16Z</time>
      </trkpt>
      <trkpt lat="59.32273547933" lon="17.99681185579">
        <ele>11</ele>
        <time>2013-08-20T17:54:17Z</time>
      </trkpt>
      <trkpt lat="59.322720894824" lon="17.996697442855">
        <ele>11</ele>
        <time>2013-08-20T17:54:18Z</time>
      </trkpt>
      <trkpt lat="59.322705807404" lon="17.996344313408">
        <ele>11</ele>
        <time>2013-08-20T17:54:21Z</time>
      </trkpt>
      <trkpt lat="59.322716033322" lon="17.996159576332">
        <ele>11</ele>
        <time>2013-08-20T17:54:23Z</time>
      </trkpt>
      <trkpt lat="59.322851820102" lon="17.995986573916">
        <ele>11</ele>
        <time>2013-08-20T17:54:26Z</time>
      </trkpt>
      <trkpt lat="59.322940919699" lon="17.995857073561">
        <ele>11</ele>
        <time>2013-08-20T17:54:28Z</time>
      </trkpt>
      <trkpt lat="59.323093218822" lon="17.995697146909">
        <ele>11.4</ele>
        <time>2013-08-20T17:54:31Z</time>
      </trkpt>
      <trkpt lat="59.323146611525" lon="17.995647106966">
        <ele>12</ele>
        <time>2013-08-20T17:54:32Z</time>
      </trkpt>
      <trkpt lat="59.323195142726" lon="17.995576028454">
        <ele>12.4</ele>
        <time>2013-08-20T17:54:33Z</time>
      </trkpt>
      <trkpt lat="59.323247948696" lon="17.995533783678">
        <ele>12.8</ele>
        <time>2013-08-20T17:54:34Z</time>
      </trkpt>
      <trkpt lat="59.323291534576" lon="17.995480307156">
        <ele>13.2</ele>
        <time>2013-08-20T17:54:35Z</time>
      </trkpt>
      <trkpt lat="59.323339395225" lon="17.99543806238">
        <ele>13.6</ele>
        <time>2013-08-20T17:54:36Z</time>
      </trkpt>
      <trkpt lat="59.323387004417" lon="17.995388776808">
        <ele>14</ele>
        <time>2013-08-20T17:54:37Z</time>
      </trkpt>
      <trkpt lat="59.323436373808" lon="17.995343095453">
        <ele>14.4</ele>
        <time>2013-08-20T17:54:38Z</time>
      </trkpt>
      <trkpt lat="59.323488257769" lon="17.995284505972">
        <ele>15</ele>
        <time>2013-08-20T17:54:39Z</time>
      </trkpt>
      <trkpt lat="59.323545925241" lon="17.995234046934">
        <ele>15.4</ele>
        <time>2013-08-20T17:54:40Z</time>
      </trkpt>
      <trkpt lat="59.323670815551" lon="17.995106725873">
        <ele>15.4</ele>
        <time>2013-08-20T17:54:42Z</time>
      </trkpt>
      <trkpt lat="59.32374298371" lon="17.995042855795">
        <ele>14.8</ele>
        <time>2013-08-20T17:54:43Z</time>
      </trkpt>
      <trkpt lat="59.323819007543" lon="17.994969178894">
        <ele>14.4</ele>
        <time>2013-08-20T17:54:44Z</time>
      </trkpt>
      <trkpt lat="59.323896456299" lon="17.994880582211">
        <ele>13.8</ele>
        <time>2013-08-20T17:54:45Z</time>
      </trkpt>
      <trkpt lat="59.323970468476" lon="17.994782262524">
        <ele>13</ele>
        <time>2013-08-20T17:54:46Z</time>
      </trkpt>
      <trkpt lat="59.324042804273" lon="17.994690061624">
        <ele>12.4</ele>
        <time>2013-08-20T17:54:47Z</time>
      </trkpt>
      <trkpt lat="59.324104914152" lon="17.994591658118">
        <ele>11.6</ele>
        <time>2013-08-20T17:54:48Z</time>
      </trkpt>
      <trkpt lat="59.324146907471" lon="17.994503396711">
        <ele>11</ele>
        <time>2013-08-20T17:54:49Z</time>
      </trkpt>
      <trkpt lat="59.324190744808" lon="17.994426953783">
        <ele>10.2</ele>
        <time>2013-08-20T17:54:50Z</time>
      </trkpt>
      <trkpt lat="59.324236761439" lon="17.994345565534">
        <ele>9.4</ele>
        <time>2013-08-20T17:54:51Z</time>
      </trkpt>
      <trkpt lat="59.324276659283" lon="17.994269960796">
        <ele>8.6</ele>
        <time>2013-08-20T17:54:52Z</time>
      </trkpt>
      <trkpt lat="59.324420325049" lon="17.993960668686">
        <ele>8.6</ele>
        <time>2013-08-20T17:54:56Z</time>
      </trkpt>
      <trkpt lat="59.324447482405" lon="17.993862516637">
        <ele>8.6</ele>
        <time>2013-08-20T17:54:57Z</time>
      </trkpt>
      <trkpt lat="59.324497187072" lon="17.993503436041">
        <ele>8.6</ele>
        <time>2013-08-20T17:55:00Z</time>
      </trkpt>
      <trkpt lat="59.324503138221" lon="17.993220966011">
        <ele>8.2</ele>
        <time>2013-08-20T17:55:02Z</time>
      </trkpt>
      <trkpt lat="59.324509340827" lon="17.993087861439">
        <ele>7.6</ele>
        <time>2013-08-20T17:55:03Z</time>
      </trkpt>
      <trkpt lat="59.324516968356" lon="17.992968084088">
        <ele>7.2</ele>
        <time>2013-08-20T17:55:04Z</time>
      </trkpt>
      <trkpt lat="59.32452501498" lon="17.9928631427">
        <ele>6.6</ele>
        <time>2013-08-20T17:55:05Z</time>
      </trkpt>
      <trkpt lat="59.324542030237" lon="17.992763901004">
        <ele>6.2</ele>
        <time>2013-08-20T17:55:06Z</time>
      </trkpt>
      <trkpt lat="59.324630543101" lon="17.992633059545">
        <ele>6.2</ele>
        <time>2013-08-20T17:55:08Z</time>
      </trkpt>
      <trkpt lat="59.324675302447" lon="17.992551755115">
        <ele>5.8</ele>
        <time>2013-08-20T17:55:09Z</time>
      </trkpt>
      <trkpt lat="59.324717631042" lon="17.992473132893">
        <ele>5.2</ele>
        <time>2013-08-20T17:55:10Z</time>
      </trkpt>
      <trkpt lat="59.32475970818" lon="17.992378920337">
        <ele>4.8</ele>
        <time>2013-08-20T17:55:11Z</time>
      </trkpt>
      <trkpt lat="59.32478988302" lon="17.992263082479">
        <ele>4.4</ele>
        <time>2013-08-20T17:55:12Z</time>
      </trkpt>
      <trkpt lat="59.324810502494" lon="17.992148250449">
        <ele>4</ele>
        <time>2013-08-20T17:55:13Z</time>
      </trkpt>
      <trkpt lat="59.324987863498" lon="17.99150778947">
        <ele>4</ele>
        <time>2013-08-20T17:55:19Z</time>
      </trkpt>
      <trkpt lat="59.32522993277" lon="17.990758112334">
        <ele>4</ele>
        <time>2013-08-20T17:55:27Z</time>
      </trkpt>
      <trkpt lat="59.325258179773" lon="17.990663229226">
        <ele>4.4</ele>
        <time>2013-08-20T17:55:28Z</time>
      </trkpt>
      <trkpt lat="59.325287935518" lon="17.990570609231">
        <ele>4.8</ele>
        <time>2013-08-20T17:55:29Z</time>
      </trkpt>
      <trkpt lat="59.325312159209" lon="17.990472038087">
        <ele>5.2</ele>
        <time>2013-08-20T17:55:30Z</time>
      </trkpt>
      <trkpt lat="59.325340741488" lon="17.990382687033">
        <ele>5.6</ele>
        <time>2013-08-20T17:55:31Z</time>
      </trkpt>
      <trkpt lat="59.325368150301" lon="17.990299790042">
        <ele>6</ele>
        <time>2013-08-20T17:55:32Z</time>
      </trkpt>
      <trkpt lat="59.325396397304" lon="17.990212199187">
        <ele>6.4</ele>
        <time>2013-08-20T17:55:33Z</time>
      </trkpt>
      <trkpt lat="59.325419866624" lon="17.99011890864">
        <ele>6.8</ele>
        <time>2013-08-20T17:55:34Z</time>
      </trkpt>
      <trkpt lat="59.325444006496" lon="17.990030731052">
        <ele>7.2</ele>
        <time>2013-08-20T17:55:35Z</time>
      </trkpt>
      <trkpt lat="59.325469990386" lon="17.989951773554">
        <ele>7.6</ele>
        <time>2013-08-20T17:55:36Z</time>
      </trkpt>
      <trkpt lat="59.32549731538" lon="17.989866194355">
        <ele>8</ele>
        <time>2013-08-20T17:55:37Z</time>
      </trkpt>
      <trkpt lat="59.325602675863" lon="17.989531505088">
        <ele>8.6</ele>
        <time>2013-08-20T17:55:41Z</time>
      </trkpt>
      <trkpt lat="59.325627318649" lon="17.989447602269">
        <ele>9.4</ele>
        <time>2013-08-20T17:55:42Z</time>
      </trkpt>
      <trkpt lat="59.32565238053" lon="17.989362945079">
        <ele>10</ele>
        <time>2013-08-20T17:55:43Z</time>
      </trkpt>
      <trkpt lat="59.32567584985" lon="17.989281137735">
        <ele>10.4</ele>
        <time>2013-08-20T17:55:44Z</time>
      </trkpt>
      <trkpt lat="59.325744832887" lon="17.989033117314">
        <ele>10.4</ele>
        <time>2013-08-20T17:55:47Z</time>
      </trkpt>
      <trkpt lat="59.325790765699" lon="17.988864557305">
        <ele>10.4</ele>
        <time>2013-08-20T17:55:49Z</time>
      </trkpt>
      <trkpt lat="59.325856647433" lon="17.988603377301">
        <ele>11</ele>
        <time>2013-08-20T17:55:52Z</time>
      </trkpt>
      <trkpt lat="59.325880954943" lon="17.988517630464">
        <ele>11.4</ele>
        <time>2013-08-20T17:55:53Z</time>
      </trkpt>
      <trkpt lat="59.325903502254" lon="17.988431129256">
        <ele>11.8</ele>
        <time>2013-08-20T17:55:54Z</time>
      </trkpt>
      <trkpt lat="59.325929653782" lon="17.988348986636">
        <ele>12.4</ele>
        <time>2013-08-20T17:55:55Z</time>
      </trkpt>
      <trkpt lat="59.325958403699" lon="17.988262569247">
        <ele>12.8</ele>
        <time>2013-08-20T17:55:56Z</time>
      </trkpt>
      <trkpt lat="59.32598430377" lon="17.988174056383">
        <ele>12.8</ele>
        <time>2013-08-20T17:55:57Z</time>
      </trkpt>
      <trkpt lat="59.326164095525" lon="17.987583886804">
        <ele>12.8</ele>
        <time>2013-08-20T17:56:04Z</time>
      </trkpt>
      <trkpt lat="59.326215728029" lon="17.987408453637">
        <ele>13.2</ele>
        <time>2013-08-20T17:56:06Z</time>
      </trkpt>
      <trkpt lat="59.326242801566" lon="17.987326813931">
        <ele>14</ele>
        <time>2013-08-20T17:56:07Z</time>
      </trkpt>
      <trkpt lat="59.326268617818" lon="17.987241318551">
        <ele>14.4</ele>
        <time>2013-08-20T17:56:08Z</time>
      </trkpt>
      <trkpt lat="59.326296613364" lon="17.987154398248">
        <ele>14.8</ele>
        <time>2013-08-20T17:56:09Z</time>
      </trkpt>
      <trkpt lat="59.326437345465" lon="17.986714097041">
        <ele>14.8</ele>
        <time>2013-08-20T17:56:14Z</time>
      </trkpt>
      <trkpt lat="59.326634655391" lon="17.986075731537">
        <ele>14.8</ele>
        <time>2013-08-20T17:56:21Z</time>
      </trkpt>
      <trkpt lat="59.326825343616" lon="17.985456225308">
        <ele>14.8</ele>
        <time>2013-08-20T17:56:27Z</time>
      </trkpt>
      <trkpt lat="59.326958364369" lon="17.985017013748">
        <ele>14.4</ele>
        <time>2013-08-20T17:56:31Z</time>
      </trkpt>
      <trkpt lat="59.326996921109" lon="17.984908132867">
        <ele>14</ele>
        <time>2013-08-20T17:56:32Z</time>
      </trkpt>
      <trkpt lat="59.327031622175" lon="17.984796569778">
        <ele>13.6</ele>
        <time>2013-08-20T17:56:33Z</time>
      </trkpt>
      <trkpt lat="59.327067329069" lon="17.984681486291">
        <ele>13.2</ele>
        <time>2013-08-20T17:56:34Z</time>
      </trkpt>
      <trkpt lat="59.327103035963" lon="17.984565732252">
        <ele>12.8</ele>
        <time>2013-08-20T17:56:35Z</time>
      </trkpt>
      <trkpt lat="59.327139078133" lon="17.98445190605">
        <ele>12.8</ele>
        <time>2013-08-20T17:56:36Z</time>
      </trkpt>
      <trkpt lat="59.327220885477" lon="17.984214195366">
        <ele>12.2</ele>
        <time>2013-08-20T17:56:38Z</time>
      </trkpt>
      <trkpt lat="59.327266985927" lon="17.984095172386">
        <ele>11.8</ele>
        <time>2013-08-20T17:56:39Z</time>
      </trkpt>
      <trkpt lat="59.327315265671" lon="17.983966342583">
        <ele>11.4</ele>
        <time>2013-08-20T17:56:40Z</time>
      </trkpt>
      <trkpt lat="59.327366395261" lon="17.983838267151">
        <ele>11</ele>
        <time>2013-08-20T17:56:41Z</time>
      </trkpt>
      <trkpt lat="59.327421464344" lon="17.983713628298">
        <ele>10.4</ele>
        <time>2013-08-20T17:56:42Z</time>
      </trkpt>
      <trkpt lat="59.327539062401" lon="17.983462422755">
        <ele>10</ele>
        <time>2013-08-20T17:56:44Z</time>
      </trkpt>
      <trkpt lat="59.327600585547" lon="17.98333962792">
        <ele>9.6</ele>
        <time>2013-08-20T17:56:45Z</time>
      </trkpt>
      <trkpt lat="59.327667724566" lon="17.98322311951">
        <ele>9</ele>
        <time>2013-08-20T17:56:46Z</time>
      </trkpt>
      <trkpt lat="59.327738719259" lon="17.983106192005">
        <ele>8.6</ele>
        <time>2013-08-20T17:56:47Z</time>
      </trkpt>
      <trkpt lat="59.327807786115" lon="17.982995550925">
        <ele>8</ele>
        <time>2013-08-20T17:56:48Z</time>
      </trkpt>
      <trkpt lat="59.327877272066" lon="17.982895219582">
        <ele>7.6</ele>
        <time>2013-08-20T17:56:49Z</time>
      </trkpt>
      <trkpt lat="59.327944746361" lon="17.982800504112">
        <ele>7</ele>
        <time>2013-08-20T17:56:50Z</time>
      </trkpt>
      <trkpt lat="59.328011717742" lon="17.982709811954">
        <ele>6.6</ele>
        <time>2013-08-20T17:56:51Z</time>
      </trkpt>
      <trkpt lat="59.328078270028" lon="17.982623394565">
        <ele>6</ele>
        <time>2013-08-20T17:56:52Z</time>
      </trkpt>
      <trkpt lat="59.328307179717" lon="17.982293902076">
        <ele>6</ele>
        <time>2013-08-20T17:56:56Z</time>
      </trkpt>
      <trkpt lat="59.328348418665" lon="17.982213771112">
        <ele>6</ele>
        <time>2013-08-20T17:56:57Z</time>
      </trkpt>
      <trkpt lat="59.32840332011" lon="17.982041690705">
        <ele>6.4</ele>
        <time>2013-08-20T17:56:59Z</time>
      </trkpt>
      <trkpt lat="59.328421508833" lon="17.981968600537">
        <ele>6.8</ele>
        <time>2013-08-20T17:57:00Z</time>
      </trkpt>
      <trkpt lat="59.328425364507" lon="17.981902383527">
        <ele>7.4</ele>
        <time>2013-08-20T17:57:01Z</time>
      </trkpt>
      <trkpt lat="59.328428381991" lon="17.981852427403">
        <ele>8</ele>
        <time>2013-08-20T17:57:02Z</time>
      </trkpt>
      <trkpt lat="59.328407259603" lon="17.981805824039">
        <ele>8.6</ele>
        <time>2013-08-20T17:57:03Z</time>
      </trkpt>
      <trkpt lat="59.32837482165" lon="17.981775649199">
        <ele>9.2</ele>
        <time>2013-08-20T17:57:04Z</time>
      </trkpt>
      <trkpt lat="59.328337689833" lon="17.981758550123">
        <ele>10</ele>
        <time>2013-08-20T17:57:05Z</time>
      </trkpt>
      <trkpt lat="59.328289913003" lon="17.981760142684">
        <ele>10.6</ele>
        <time>2013-08-20T17:57:06Z</time>
      </trkpt>
      <trkpt lat="59.328240040698" lon="17.981770955335">
        <ele>10.6</ele>
        <time>2013-08-20T17:57:07Z</time>
      </trkpt>
      <trkpt lat="59.327942147972" lon="17.981837507621">
        <ele>10.6</ele>
        <time>2013-08-20T17:57:12Z</time>
      </trkpt>
      <trkpt lat="59.327612823121" lon="17.981869107384">
        <ele>10.6</ele>
        <time>2013-08-20T17:57:17Z</time>
      </trkpt>
      <trkpt lat="59.327555490925" lon="17.981853433231">
        <ele>10.6</ele>
        <time>2013-08-20T17:57:18Z</time>
      </trkpt>
      <trkpt lat="59.327280229329" lon="17.981756706105">
        <ele>10.6</ele>
        <time>2013-08-20T17:57:22Z</time>
      </trkpt>
      <trkpt lat="59.326986862829" lon="17.981559228541">
        <ele>10</ele>
        <time>2013-08-20T17:57:26Z</time>
      </trkpt>
      <trkpt lat="59.326913185928" lon="17.981497956852">
        <ele>9.6</ele>
        <time>2013-08-20T17:57:27Z</time>
      </trkpt>
      <trkpt lat="59.326840179579" lon="17.981426291607">
        <ele>9</ele>
        <time>2013-08-20T17:57:28Z</time>
      </trkpt>
      <trkpt lat="59.326767759963" lon="17.981347669385">
        <ele>8.6</ele>
        <time>2013-08-20T17:57:29Z</time>
      </trkpt>
      <trkpt lat="59.326699782754" lon="17.981258150693">
        <ele>8</ele>
        <time>2013-08-20T17:57:30Z</time>
      </trkpt>
      <trkpt lat="59.326629961527" lon="17.981157986988">
        <ele>7.4</ele>
        <time>2013-08-20T17:57:31Z</time>
      </trkpt>
      <trkpt lat="59.326559553567" lon="17.981058410016">
        <ele>7</ele>
        <time>2013-08-20T17:57:32Z</time>
      </trkpt>
      <trkpt lat="59.326475986024" lon="17.980962437261">
        <ele>6.4</ele>
        <time>2013-08-20T17:57:33Z</time>
      </trkpt>
      <trkpt lat="59.326401638571" lon="17.980869565809">
        <ele>5.6</ele>
        <time>2013-08-20T17:57:34Z</time>
      </trkpt>
      <trkpt lat="59.326327207299" lon="17.980777867823">
        <ele>5</ele>
        <time>2013-08-20T17:57:35Z</time>
      </trkpt>
      <trkpt lat="59.326253530398" lon="17.980682230344">
        <ele>4.2</ele>
        <time>2013-08-20T17:57:36Z</time>
      </trkpt>
      <trkpt lat="59.32618546937" lon="17.980585922313">
        <ele>3.4</ele>
        <time>2013-08-20T17:57:37Z</time>
      </trkpt>
      <trkpt lat="59.326119587636" lon="17.980490284834">
        <ele>2.8</ele>
        <time>2013-08-20T17:57:38Z</time>
      </trkpt>
      <trkpt lat="59.326058818861" lon="17.980390372586">
        <ele>2.2</ele>
        <time>2013-08-20T17:57:39Z</time>
      </trkpt>
      <trkpt lat="59.326006599624" lon="17.980299680428">
        <ele>1.8</ele>
        <time>2013-08-20T17:57:40Z</time>
      </trkpt>
      <trkpt lat="59.325961169726" lon="17.980218878912">
        <ele>1.4</ele>
        <time>2013-08-20T17:57:41Z</time>
      </trkpt>
      <trkpt lat="59.325938706234" lon="17.980123660528">
        <ele>0.8</ele>
        <time>2013-08-20T17:57:42Z</time>
      </trkpt>
      <trkpt lat="59.325943483917" lon="17.980014025276">
        <ele>0</ele>
        <time>2013-08-20T17:57:43Z</time>
      </trkpt>
      <trkpt lat="59.325963516658" lon="17.979921656738">
        <ele>0</ele>
        <time>2013-08-20T17:57:44Z</time>
      </trkpt>
      <trkpt lat="59.325995032602" lon="17.97982425906">
        <ele>0</ele>
        <time>2013-08-20T17:57:45Z</time>
      </trkpt>
      <trkpt lat="59.326013221325" lon="17.979727196658">
        <ele>0</ele>
        <time>2013-08-20T17:57:46Z</time>
      </trkpt>
      <trkpt lat="59.326065021467" lon="17.979253786946">
        <ele>0</ele>
        <time>2013-08-20T17:57:50Z</time>
      </trkpt>
      <trkpt lat="59.326083042552" lon="17.979133339043">
        <ele>0</ele>
        <time>2013-08-20T17:57:51Z</time>
      </trkpt>
      <trkpt lat="59.326110702822" lon="17.979031750415">
        <ele>0</ele>
        <time>2013-08-20T17:57:52Z</time>
      </trkpt>
      <trkpt lat="59.326149091924" lon="17.978940639162">
        <ele>0</ele>
        <time>2013-08-20T17:57:53Z</time>
      </trkpt>
      <trkpt lat="59.326188905949" lon="17.978847264796">
        <ele>0.2</ele>
        <time>2013-08-20T17:57:54Z</time>
      </trkpt>
      <trkpt lat="59.326228133241" lon="17.978758751932">
        <ele>0.6</ele>
        <time>2013-08-20T17:57:55Z</time>
      </trkpt>
      <trkpt lat="59.326272473492" lon="17.978677363683">
        <ele>1.2</ele>
        <time>2013-08-20T17:57:56Z</time>
      </trkpt>
      <trkpt lat="59.326305833454" lon="17.978580217462">
        <ele>1.8</ele>
        <time>2013-08-20T17:57:57Z</time>
      </trkpt>
      <trkpt lat="59.326347575316" lon="17.978502852525">
        <ele>2.4</ele>
        <time>2013-08-20T17:57:58Z</time>
      </trkpt>
      <trkpt lat="59.326387976074" lon="17.978435462049">
        <ele>3</ele>
        <time>2013-08-20T17:57:59Z</time>
      </trkpt>
      <trkpt lat="59.32642351533" lon="17.978373184532">
        <ele>3.6</ele>
        <time>2013-08-20T17:58:00Z</time>
      </trkpt>
      <trkpt lat="59.326448409573" lon="17.978300345821">
        <ele>4.2</ele>
        <time>2013-08-20T17:58:01Z</time>
      </trkpt>
      <trkpt lat="59.326452768161" lon="17.978217281192">
        <ele>4.8</ele>
        <time>2013-08-20T17:58:02Z</time>
      </trkpt>
      <trkpt lat="59.326437094008" lon="17.978122146627">
        <ele>5.4</ele>
        <time>2013-08-20T17:58:03Z</time>
      </trkpt>
      <trkpt lat="59.326410523385" lon="17.978016031773">
        <ele>6</ele>
        <time>2013-08-20T17:58:04Z</time>
      </trkpt>
      <trkpt lat="59.326382611658" lon="17.97791150948">
        <ele>6.6</ele>
        <time>2013-08-20T17:58:05Z</time>
      </trkpt>
      <trkpt lat="59.326351011895" lon="17.977806484273">
        <ele>7.2</ele>
        <time>2013-08-20T17:58:06Z</time>
      </trkpt>
      <trkpt lat="59.326319915046" lon="17.977703303084">
        <ele>7.8</ele>
        <time>2013-08-20T17:58:07Z</time>
      </trkpt>
      <trkpt lat="59.326108858804" lon="17.977035852387">
        <ele>7.8</ele>
        <time>2013-08-20T17:58:14Z</time>
      </trkpt>
      <trkpt lat="59.325929737601" lon="17.976908028412">
        <ele>7.8</ele>
        <time>2013-08-20T17:58:17Z</time>
      </trkpt>
      <trkpt lat="59.325701330826" lon="17.976774840021">
        <ele>7.2</ele>
        <time>2013-08-20T17:58:20Z</time>
      </trkpt>
      <trkpt lat="59.325627486287" lon="17.976736702376">
        <ele>6.8</ele>
        <time>2013-08-20T17:58:21Z</time>
      </trkpt>
      <trkpt lat="59.325561436915" lon="17.976704096785">
        <ele>6.2</ele>
        <time>2013-08-20T17:58:22Z</time>
      </trkpt>
      <trkpt lat="59.325511396972" lon="17.976668725167">
        <ele>5.6</ele>
        <time>2013-08-20T17:58:23Z</time>
      </trkpt>
      <trkpt lat="59.325472672594" lon="17.976621283613">
        <ele>5</ele>
        <time>2013-08-20T17:58:24Z</time>
      </trkpt>
      <trkpt lat="59.325453478043" lon="17.976547187617">
        <ele>4.4</ele>
        <time>2013-08-20T17:58:25Z</time>
      </trkpt>
      <trkpt lat="59.325450041464" lon="17.976461524599">
        <ele>3.8</ele>
        <time>2013-08-20T17:58:26Z</time>
      </trkpt>
      <trkpt lat="59.325463955418" lon="17.976373598468">
        <ele>3.2</ele>
        <time>2013-08-20T17:58:27Z</time>
      </trkpt>
      <trkpt lat="59.325516007017" lon="17.976170085936">
        <ele>3.2</ele>
        <time>2013-08-20T17:58:29Z</time>
      </trkpt>
      <trkpt lat="59.325569567358" lon="17.975966824861">
        <ele>3.2</ele>
        <time>2013-08-20T17:58:31Z</time>
      </trkpt>
      <trkpt lat="59.325775426822" lon="17.975358215102">
        <ele>3.2</ele>
        <time>2013-08-20T17:58:37Z</time>
      </trkpt>
      <trkpt lat="59.325873746509" lon="17.97507339814">
        <ele>3.2</ele>
        <time>2013-08-20T17:58:40Z</time>
      </trkpt>
      <trkpt lat="59.325929569963" lon="17.974858318586">
        <ele>3.2</ele>
        <time>2013-08-20T17:58:42Z</time>
      </trkpt>
      <trkpt lat="59.326000145561" lon="17.974528239364">
        <ele>3.2</ele>
        <time>2013-08-20T17:58:45Z</time>
      </trkpt>
      <trkpt lat="59.326025542718" lon="17.974211319725">
        <ele>3.2</ele>
        <time>2013-08-20T17:58:48Z</time>
      </trkpt>
      <trkpt lat="59.326027470555" lon="17.974147282009">
        <ele>3.6</ele>
        <time>2013-08-20T17:58:49Z</time>
      </trkpt>
      <trkpt lat="59.326027638193" lon="17.974116520436">
        <ele>4.2</ele>
        <time>2013-08-20T17:58:50Z</time>
      </trkpt>
      <trkpt lat="59.326028224926" lon="17.974097996437">
        <ele>4.8</ele>
        <time>2013-08-20T17:58:51Z</time>
      </trkpt>
      <trkpt lat="59.326026380908" lon="17.974078718067">
        <ele>5.2</ele>
        <time>2013-08-20T17:58:52Z</time>
      </trkpt>
      <trkpt lat="59.326014730067" lon="17.97406002643">
        <ele>5.8</ele>
        <time>2013-08-20T17:58:53Z</time>
      </trkpt>
      <trkpt lat="59.326000564656" lon="17.974043094992">
        <ele>5.8</ele>
        <time>2013-08-20T17:58:54Z</time>
      </trkpt>
      <trkpt lat="59.325982543571" lon="17.97402398426">
        <ele>5.8</ele>
        <time>2013-08-20T17:58:55Z</time>
      </trkpt>
      <trkpt lat="59.325889923576" lon="17.973940249079">
        <ele>5.8</ele>
        <time>2013-08-20T17:58:58Z</time>
      </trkpt>
      <trkpt lat="59.325843068755" lon="17.973912924085">
        <ele>5.8</ele>
        <time>2013-08-20T17:58:59Z</time>
      </trkpt>
      <trkpt lat="59.325738965557" lon="17.973898758674">
        <ele>5.8</ele>
        <time>2013-08-20T17:59:01Z</time>
      </trkpt>
      <trkpt lat="59.325424979583" lon="17.973890879688">
        <ele>5.8</ele>
        <time>2013-08-20T17:59:06Z</time>
      </trkpt>
      <trkpt lat="59.324917204081" lon="17.973908649316">
        <ele>5.8</ele>
        <time>2013-08-20T17:59:14Z</time>
      </trkpt>
      <trkpt lat="59.324469526802" lon="17.974059104421">
        <ele>5.8</ele>
        <time>2013-08-20T17:59:21Z</time>
      </trkpt>
      <trkpt lat="59.324168868049" lon="17.974171002786">
        <ele>6.2</ele>
        <time>2013-08-20T17:59:26Z</time>
      </trkpt>
      <trkpt lat="59.324111703491" lon="17.974192376631">
        <ele>6.6</ele>
        <time>2013-08-20T17:59:27Z</time>
      </trkpt>
      <trkpt lat="59.324055041847" lon="17.974220455996">
        <ele>7</ele>
        <time>2013-08-20T17:59:28Z</time>
      </trkpt>
      <trkpt lat="59.323997458194" lon="17.97424861918">
        <ele>7.4</ele>
        <time>2013-08-20T17:59:29Z</time>
      </trkpt>
      <trkpt lat="59.323934761582" lon="17.974264963885">
        <ele>7.8</ele>
        <time>2013-08-20T17:59:30Z</time>
      </trkpt>
      <trkpt lat="59.323812469661" lon="17.974304694091">
        <ele>7.8</ele>
        <time>2013-08-20T17:59:32Z</time>
      </trkpt>
      <trkpt lat="59.323686154428" lon="17.974354482577">
        <ele>7.8</ele>
        <time>2013-08-20T17:59:34Z</time>
      </trkpt>
      <trkpt lat="59.323477948032" lon="17.97439614062">
        <ele>7.8</ele>
        <time>2013-08-20T17:59:37Z</time>
      </trkpt>
      <trkpt lat="59.323341323062" lon="17.974415586628">
        <ele>8.2</ele>
        <time>2013-08-20T17:59:39Z</time>
      </trkpt>
      <trkpt lat="59.323271250378" lon="17.974417263008">
        <ele>8.6</ele>
        <time>2013-08-20T17:59:40Z</time>
      </trkpt>
      <trkpt lat="59.32319983659" lon="17.974417430646">
        <ele>9</ele>
        <time>2013-08-20T17:59:41Z</time>
      </trkpt>
      <trkpt lat="59.323126662603" lon="17.974411311859">
        <ele>9.4</ele>
        <time>2013-08-20T17:59:42Z</time>
      </trkpt>
      <trkpt lat="59.323054745901" lon="17.974391446756">
        <ele>9.8</ele>
        <time>2013-08-20T17:59:43Z</time>
      </trkpt>
      <trkpt lat="59.322909655212" lon="17.974333444008">
        <ele>9.4</ele>
        <time>2013-08-20T17:59:45Z</time>
      </trkpt>
      <trkpt lat="59.322839163433" lon="17.97430477791">
        <ele>8.8</ele>
        <time>2013-08-20T17:59:46Z</time>
      </trkpt>
      <trkpt lat="59.322765486532" lon="17.974274267794">
        <ele>8.4</ele>
        <time>2013-08-20T17:59:47Z</time>
      </trkpt>
      <trkpt lat="59.322688456871" lon="17.974241159289">
        <ele>8</ele>
        <time>2013-08-20T17:59:48Z</time>
      </trkpt>
      <trkpt lat="59.322608325907" lon="17.974206122947">
        <ele>7</ele>
        <time>2013-08-20T17:59:49Z</time>
      </trkpt>
      <trkpt lat="59.322524674545" lon="17.974166392741">
        <ele>6.4</ele>
        <time>2013-08-20T17:59:50Z</time>
      </trkpt>
      <trkpt lat="59.322441023183" lon="17.974118196816">
        <ele>5.8</ele>
        <time>2013-08-20T17:59:51Z</time>
      </trkpt>
      <trkpt lat="59.322351504491" lon="17.974049465236">
        <ele>5.2</ele>
        <time>2013-08-20T17:59:52Z</time>
      </trkpt>
      <trkpt lat="59.32219484678" lon="17.973889203308">
        <ele>5.2</ele>
        <time>2013-08-20T17:59:54Z</time>
      </trkpt>
      <trkpt lat="59.322057551258" lon="17.973693402124">
        <ele>5.2</ele>
        <time>2013-08-20T17:59:56Z</time>
      </trkpt>
      <trkpt lat="59.321930649292" lon="17.973486955927">
        <ele>5.2</ele>
        <time>2013-08-20T17:59:58Z</time>
      </trkpt>
      <trkpt lat="59.321808189733" lon="17.973280090635">
        <ele>4.8</ele>
        <time>2013-08-20T18:00:00Z</time>
      </trkpt>
      <trkpt lat="59.321754210297" lon="17.973181351853">
        <ele>4.2</ele>
        <time>2013-08-20T18:00:01Z</time>
      </trkpt>
      <trkpt lat="59.321699308852" lon="17.973078086845">
        <ele>3.6</ele>
        <time>2013-08-20T18:00:02Z</time>
      </trkpt>
      <trkpt lat="59.321644826502" lon="17.972971385258">
        <ele>3.2</ele>
        <time>2013-08-20T18:00:03Z</time>
      </trkpt>
      <trkpt lat="59.321590847066" lon="17.97285973835">
        <ele>2.6</ele>
        <time>2013-08-20T18:00:04Z</time>
      </trkpt>
      <trkpt lat="59.321245848062" lon="17.972159346786">
        <ele>2.2</ele>
        <time>2013-08-20T18:00:10Z</time>
      </trkpt>
      <trkpt lat="59.321185582201" lon="17.972041581091">
        <ele>1.8</ele>
        <time>2013-08-20T18:00:11Z</time>
      </trkpt>
      <trkpt lat="59.321127579453" lon="17.971923647758">
        <ele>1.4</ele>
        <time>2013-08-20T18:00:12Z</time>
      </trkpt>
      <trkpt lat="59.321066726859" lon="17.971802864579">
        <ele>1</ele>
        <time>2013-08-20T18:00:13Z</time>
      </trkpt>
      <trkpt lat="59.321004700799" lon="17.971677136079">
        <ele>0.6</ele>
        <time>2013-08-20T18:00:14Z</time>
      </trkpt>
      <trkpt lat="59.320883163249" lon="17.971404724329">
        <ele>0.6</ele>
        <time>2013-08-20T18:00:16Z</time>
      </trkpt>
      <trkpt lat="59.320475467633" lon="17.970500065862">
        <ele>0.6</ele>
        <time>2013-08-20T18:00:23Z</time>
      </trkpt>
      <trkpt lat="59.320129462801" lon="17.969736558591">
        <ele>0.6</ele>
        <time>2013-08-20T18:00:29Z</time>
      </trkpt>
      <trkpt lat="59.319766526531" lon="17.968960394651">
        <ele>0.2</ele>
        <time>2013-08-20T18:00:35Z</time>
      </trkpt>
      <trkpt lat="59.319706679765" lon="17.968835504341">
        <ele>0</ele>
        <time>2013-08-20T18:00:36Z</time>
      </trkpt>
      <trkpt lat="59.319653203243" lon="17.968704914339">
        <ele>0</ele>
        <time>2013-08-20T18:00:37Z</time>
      </trkpt>
      <trkpt lat="59.319600061997" lon="17.968568121731">
        <ele>0</ele>
        <time>2013-08-20T18:00:38Z</time>
      </trkpt>
      <trkpt lat="59.319542562163" lon="17.968416325522">
        <ele>0</ele>
        <time>2013-08-20T18:00:39Z</time>
      </trkpt>
      <trkpt lat="59.319485565243" lon="17.968272575937">
        <ele>0</ele>
        <time>2013-08-20T18:00:40Z</time>
      </trkpt>
      <trkpt lat="59.319429825608" lon="17.968130418913">
        <ele>0</ele>
        <time>2013-08-20T18:00:41Z</time>
      </trkpt>
      <trkpt lat="59.319371990498" lon="17.967988345708">
        <ele>0</ele>
        <time>2013-08-20T18:00:42Z</time>
      </trkpt>
      <trkpt lat="59.319315747949" lon="17.967847613607">
        <ele>0</ele>
        <time>2013-08-20T18:00:43Z</time>
      </trkpt>
      <trkpt lat="59.319146433569" lon="17.967435894679">
        <ele>0</ele>
        <time>2013-08-20T18:00:46Z</time>
      </trkpt>
      <trkpt lat="59.318871255792" lon="17.966719242229">
        <ele>0</ele>
        <time>2013-08-20T18:00:51Z</time>
      </trkpt>
      <trkpt lat="59.318825742075" lon="17.966576414653">
        <ele>0</ele>
        <time>2013-08-20T18:00:52Z</time>
      </trkpt>
      <trkpt lat="59.318517288155" lon="17.965694135859">
        <ele>0</ele>
        <time>2013-08-20T18:00:59Z</time>
      </trkpt>
      <trkpt lat="59.318220652714" lon="17.964830129607">
        <ele>0</ele>
        <time>2013-08-20T18:01:06Z</time>
      </trkpt>
      <trkpt lat="59.318010099386" lon="17.964049020346">
        <ele>0</ele>
        <time>2013-08-20T18:01:12Z</time>
      </trkpt>
      <trkpt lat="59.317758977662" lon="17.963147044087">
        <ele>0</ele>
        <time>2013-08-20T18:01:19Z</time>
      </trkpt>
      <trkpt lat="59.317571726016" lon="17.962345231533">
        <ele>0</ele>
        <time>2013-08-20T18:01:25Z</time>
      </trkpt>
      <trkpt lat="59.317430910096" lon="17.961516764537">
        <ele>0</ele>
        <time>2013-08-20T18:01:31Z</time>
      </trkpt>
      <trkpt lat="59.317378774678" lon="17.961109068921">
        <ele>0</ele>
        <time>2013-08-20T18:01:34Z</time>
      </trkpt>
      <trkpt lat="59.317362597611" lon="17.960967079535">
        <ele>0</ele>
        <time>2013-08-20T18:01:35Z</time>
      </trkpt>
      <trkpt lat="59.317349438028" lon="17.960826179796">
        <ele>0</ele>
        <time>2013-08-20T18:01:36Z</time>
      </trkpt>
      <trkpt lat="59.317339463567" lon="17.960685363876">
        <ele>0</ele>
        <time>2013-08-20T18:01:37Z</time>
      </trkpt>
      <trkpt lat="59.317337116635" lon="17.960534824952">
        <ele>0</ele>
        <time>2013-08-20T18:01:38Z</time>
      </trkpt>
      <trkpt lat="59.317350276218" lon="17.960247828696">
        <ele>0</ele>
        <time>2013-08-20T18:01:40Z</time>
      </trkpt>
      <trkpt lat="59.317408698061" lon="17.95938080496">
        <ele>0</ele>
        <time>2013-08-20T18:01:46Z</time>
      </trkpt>
      <trkpt lat="59.317524033005" lon="17.958670522754">
        <ele>0</ele>
        <time>2013-08-20T18:01:51Z</time>
      </trkpt>
      <trkpt lat="59.317698711801" lon="17.95777986206">
        <ele>0</ele>
        <time>2013-08-20T18:01:57Z</time>
      </trkpt>
      <trkpt lat="59.317727042623" lon="17.957617588476">
        <ele>0</ele>
        <time>2013-08-20T18:01:58Z</time>
      </trkpt>
      <trkpt lat="59.317760067309" lon="17.957452548865">
        <ele>0</ele>
        <time>2013-08-20T18:01:59Z</time>
      </trkpt>
      <trkpt lat="59.317793594909" lon="17.957283150666">
        <ele>0</ele>
        <time>2013-08-20T18:02:00Z</time>
      </trkpt>
      <trkpt lat="59.317827373966" lon="17.957097826857">
        <ele>0</ele>
        <time>2013-08-20T18:02:01Z</time>
      </trkpt>
      <trkpt lat="59.317858973729" lon="17.956912586867">
        <ele>0</ele>
        <time>2013-08-20T18:02:02Z</time>
      </trkpt>
      <trkpt lat="59.317888645655" lon="17.956723072108">
        <ele>0</ele>
        <time>2013-08-20T18:02:03Z</time>
      </trkpt>
      <trkpt lat="59.317918066124" lon="17.956527773838">
        <ele>0</ele>
        <time>2013-08-20T18:02:04Z</time>
      </trkpt>
      <trkpt lat="59.317954611208" lon="17.956329541903">
        <ele>0</ele>
        <time>2013-08-20T18:02:05Z</time>
      </trkpt>
      <trkpt lat="59.317990988654" lon="17.956134578909">
        <ele>0</ele>
        <time>2013-08-20T18:02:06Z</time>
      </trkpt>
      <trkpt lat="59.318023929521" lon="17.955933078033">
        <ele>0</ele>
        <time>2013-08-20T18:02:07Z</time>
      </trkpt>
      <trkpt lat="59.318059301139" lon="17.955712717882">
        <ele>0</ele>
        <time>2013-08-20T18:02:08Z</time>
      </trkpt>
      <trkpt lat="59.318092242006" lon="17.955512977205">
        <ele>0</ele>
        <time>2013-08-20T18:02:09Z</time>
      </trkpt>
      <trkpt lat="59.31812962528" lon="17.955317678935">
        <ele>0</ele>
        <time>2013-08-20T18:02:10Z</time>
      </trkpt>
      <trkpt lat="59.318161141224" lon="17.955125901063">
        <ele>0</ele>
        <time>2013-08-20T18:02:11Z</time>
      </trkpt>
      <trkpt lat="59.318190226417" lon="17.954940661073">
        <ele>0</ele>
        <time>2013-08-20T18:02:12Z</time>
      </trkpt>
      <trkpt lat="59.318218054325" lon="17.954759695852">
        <ele>0</ele>
        <time>2013-08-20T18:02:13Z</time>
      </trkpt>
      <trkpt lat="59.31824613369" lon="17.954589375644">
        <ele>0</ele>
        <time>2013-08-20T18:02:14Z</time>
      </trkpt>
      <trkpt lat="59.318362558281" lon="17.953756633879">
        <ele>0</ele>
        <time>2013-08-20T18:02:19Z</time>
      </trkpt>
      <trkpt lat="59.318408239636" lon="17.953453376737">
        <ele>0</ele>
        <time>2013-08-20T18:02:21Z</time>
      </trkpt>
      <trkpt lat="59.318430619309" lon="17.953300490881">
        <ele>0</ele>
        <time>2013-08-20T18:02:22Z</time>
      </trkpt>
      <trkpt lat="59.318450400593" lon="17.953157663305">
        <ele>0</ele>
        <time>2013-08-20T18:02:23Z</time>
      </trkpt>
      <trkpt lat="59.318468589316" lon="17.95301894286">
        <ele>0</ele>
        <time>2013-08-20T18:02:24Z</time>
      </trkpt>
      <trkpt lat="59.318484598745" lon="17.952885503012">
        <ele>0</ele>
        <time>2013-08-20T18:02:25Z</time>
      </trkpt>
      <trkpt lat="59.318596748567" lon="17.952093078186">
        <ele>0</ele>
        <time>2013-08-20T18:02:31Z</time>
      </trkpt>
      <trkpt lat="59.318708311656" lon="17.951311382192">
        <ele>0</ele>
        <time>2013-08-20T18:02:37Z</time>
      </trkpt>
      <trkpt lat="59.318723482895" lon="17.951172745566">
        <ele>0</ele>
        <time>2013-08-20T18:02:38Z</time>
      </trkpt>
      <trkpt lat="59.318735888107" lon="17.951025056488">
        <ele>0</ele>
        <time>2013-08-20T18:02:39Z</time>
      </trkpt>
      <trkpt lat="59.318746365482" lon="17.950883905292">
        <ele>0</ele>
        <time>2013-08-20T18:02:40Z</time>
      </trkpt>
      <trkpt lat="59.318756004667" lon="17.950745855399">
        <ele>0</ele>
        <time>2013-08-20T18:02:41Z</time>
      </trkpt>
      <trkpt lat="59.318777127055" lon="17.950452740356">
        <ele>0</ele>
        <time>2013-08-20T18:02:43Z</time>
      </trkpt>
      <trkpt lat="59.318860694598" lon="17.949614131261">
        <ele>0</ele>
        <time>2013-08-20T18:02:49Z</time>
      </trkpt>
      <trkpt lat="59.318916266595" lon="17.949019183999">
        <ele>0</ele>
        <time>2013-08-20T18:02:53Z</time>
      </trkpt>
      <trkpt lat="59.319019112508" lon="17.948417447398">
        <ele>0</ele>
        <time>2013-08-20T18:02:57Z</time>
      </trkpt>
      <trkpt lat="59.319142577895" lon="17.94791520395">
        <ele>0</ele>
        <time>2013-08-20T18:03:01Z</time>
      </trkpt>
      <trkpt lat="59.319181469911" lon="17.947798276445">
        <ele>0</ele>
        <time>2013-08-20T18:03:02Z</time>
      </trkpt>
      <trkpt lat="59.319221535393" lon="17.94768218713">
        <ele>0</ele>
        <time>2013-08-20T18:03:03Z</time>
      </trkpt>
      <trkpt lat="59.31926369635" lon="17.947572048964">
        <ele>0</ele>
        <time>2013-08-20T18:03:04Z</time>
      </trkpt>
      <trkpt lat="59.319307114592" lon="17.947459815323">
        <ele>0</ele>
        <time>2013-08-20T18:03:05Z</time>
      </trkpt>
      <trkpt lat="59.31948162575" lon="17.946986908525">
        <ele>0</ele>
        <time>2013-08-20T18:03:09Z</time>
      </trkpt>
      <trkpt lat="59.319727550696" lon="17.946284589124">
        <ele>0</ele>
        <time>2013-08-20T18:03:15Z</time>
      </trkpt>
      <trkpt lat="59.319976744583" lon="17.945544551173">
        <ele>0</ele>
        <time>2013-08-20T18:03:21Z</time>
      </trkpt>
      <trkpt lat="59.320016474789" lon="17.945408345298">
        <ele>0</ele>
        <time>2013-08-20T18:03:22Z</time>
      </trkpt>
      <trkpt lat="59.320210683412" lon="17.944770147432">
        <ele>0</ele>
        <time>2013-08-20T18:03:27Z</time>
      </trkpt>
      <trkpt lat="59.320253347283" lon="17.944661266551">
        <ele>0</ele>
        <time>2013-08-20T18:03:28Z</time>
      </trkpt>
      <trkpt lat="59.320469265027" lon="17.94420286044">
        <ele>0</ele>
        <time>2013-08-20T18:03:33Z</time>
      </trkpt>
      <trkpt lat="59.320542019919" lon="17.944049806946">
        <ele>0</ele>
        <time>2013-08-20T18:03:35Z</time>
      </trkpt>
      <trkpt lat="59.320578648822" lon="17.943977890244">
        <ele>0</ele>
        <time>2013-08-20T18:03:36Z</time>
      </trkpt>
      <trkpt lat="59.320617037924" lon="17.943910667406">
        <ele>0</ele>
        <time>2013-08-20T18:03:37Z</time>
      </trkpt>
      <trkpt lat="59.320652325723" lon="17.943848222251">
        <ele>0</ele>
        <time>2013-08-20T18:03:38Z</time>
      </trkpt>
      <trkpt lat="59.320685769504" lon="17.943785106544">
        <ele>0</ele>
        <time>2013-08-20T18:03:39Z</time>
      </trkpt>
      <trkpt lat="59.320722230769" lon="17.943724421588">
        <ele>0</ele>
        <time>2013-08-20T18:03:40Z</time>
      </trkpt>
      <trkpt lat="59.320757015654" lon="17.943670777428">
        <ele>0</ele>
        <time>2013-08-20T18:03:41Z</time>
      </trkpt>
      <trkpt lat="59.320788699236" lon="17.943613193775">
        <ele>0</ele>
        <time>2013-08-20T18:03:42Z</time>
      </trkpt>
      <trkpt lat="59.320818874076" lon="17.943550245706">
        <ele>0</ele>
        <time>2013-08-20T18:03:43Z</time>
      </trkpt>
      <trkpt lat="59.320884169077" lon="17.943431977097">
        <ele>0</ele>
        <time>2013-08-20T18:03:45Z</time>
      </trkpt>
      <trkpt lat="59.320920127428" lon="17.943378249118">
        <ele>0</ele>
        <time>2013-08-20T18:03:46Z</time>
      </trkpt>
      <trkpt lat="59.320952816838" lon="17.943323347673">
        <ele>0</ele>
        <time>2013-08-20T18:03:47Z</time>
      </trkpt>
      <trkpt lat="59.320988188456" lon="17.943267943314">
        <ele>0</ele>
        <time>2013-08-20T18:03:48Z</time>
      </trkpt>
      <trkpt lat="59.321025823187" lon="17.943223100149">
        <ele>0</ele>
        <time>2013-08-20T18:03:49Z</time>
      </trkpt>
      <trkpt lat="59.32106412847" lon="17.943180855373">
        <ele>0</ele>
        <time>2013-08-20T18:03:50Z</time>
      </trkpt>
      <trkpt lat="59.321099248631" lon="17.943136934217">
        <ele>0</ele>
        <time>2013-08-20T18:03:51Z</time>
      </trkpt>
      <trkpt lat="59.321138475923" lon="17.943102484608">
        <ele>0</ele>
        <time>2013-08-20T18:03:52Z</time>
      </trkpt>
      <trkpt lat="59.321179044319" lon="17.943071723035">
        <ele>0</ele>
        <time>2013-08-20T18:03:53Z</time>
      </trkpt>
      <trkpt lat="59.321220953819" lon="17.943044146584">
        <ele>0</ele>
        <time>2013-08-20T18:03:54Z</time>
      </trkpt>
      <trkpt lat="59.321347185233" lon="17.942949179657">
        <ele>0</ele>
        <time>2013-08-20T18:03:57Z</time>
      </trkpt>
      <trkpt lat="59.321389178552" lon="17.942921603206">
        <ele>0</ele>
        <time>2013-08-20T18:03:58Z</time>
      </trkpt>
      <trkpt lat="59.321430501319" lon="17.942893942936">
        <ele>0</ele>
        <time>2013-08-20T18:03:59Z</time>
      </trkpt>
      <trkpt lat="59.321472746095" lon="17.942865276838">
        <ele>0</ele>
        <time>2013-08-20T18:04:00Z</time>
      </trkpt>
      <trkpt lat="59.321514571776" lon="17.942834179989">
        <ele>0</ele>
        <time>2013-08-20T18:04:01Z</time>
      </trkpt>
      <trkpt lat="59.321555056353" lon="17.942806771176">
        <ele>0</ele>
        <time>2013-08-20T18:04:02Z</time>
      </trkpt>
      <trkpt lat="59.321636696059" lon="17.942756312138">
        <ele>0</ele>
        <time>2013-08-20T18:04:04Z</time>
      </trkpt>
      <trkpt lat="59.321677515912" lon="17.942731585533">
        <ele>0</ele>
        <time>2013-08-20T18:04:05Z</time>
      </trkpt>
      <trkpt lat="59.321719928326" lon="17.942706523652">
        <ele>0</ele>
        <time>2013-08-20T18:04:06Z</time>
      </trkpt>
      <trkpt lat="59.321760831998" lon="17.942682299961">
        <ele>0</ele>
        <time>2013-08-20T18:04:07Z</time>
      </trkpt>
      <trkpt lat="59.32180173567" lon="17.942657992451">
        <ele>0</ele>
        <time>2013-08-20T18:04:08Z</time>
      </trkpt>
      <trkpt lat="59.321888236878" lon="17.94259185926">
        <ele>0.2</ele>
        <time>2013-08-20T18:04:10Z</time>
      </trkpt>
      <trkpt lat="59.32193668426" lon="17.942551123226">
        <ele>0.8</ele>
        <time>2013-08-20T18:04:11Z</time>
      </trkpt>
      <trkpt lat="59.321984209633" lon="17.942506615337">
        <ele>1.2</ele>
        <time>2013-08-20T18:04:12Z</time>
      </trkpt>
      <trkpt lat="59.322030896816" lon="17.942462358905">
        <ele>1.6</ele>
        <time>2013-08-20T18:04:13Z</time>
      </trkpt>
      <trkpt lat="59.322079428017" lon="17.94242673583">
        <ele>2</ele>
        <time>2013-08-20T18:04:14Z</time>
      </trkpt>
      <trkpt lat="59.322241701601" lon="17.942319363691">
        <ele>2</ele>
        <time>2013-08-20T18:04:17Z</time>
      </trkpt>
      <trkpt lat="59.322356449812" lon="17.9422532305">
        <ele>2</ele>
        <time>2013-08-20T18:04:19Z</time>
      </trkpt>
      <trkpt lat="59.322538001766" lon="17.942202017091">
        <ele>2</ele>
        <time>2013-08-20T18:04:22Z</time>
      </trkpt>
      <trkpt lat="59.322952738178" lon="17.942080144265">
        <ele>2.4</ele>
        <time>2013-08-20T18:04:29Z</time>
      </trkpt>
      <trkpt lat="59.323011495297" lon="17.942065308302">
        <ele>2.8</ele>
        <time>2013-08-20T18:04:30Z</time>
      </trkpt>
      <trkpt lat="59.323068073122" lon="17.942056423488">
        <ele>3.2</ele>
        <time>2013-08-20T18:04:31Z</time>
      </trkpt>
      <trkpt lat="59.323125153861" lon="17.94205038852">
        <ele>3.6</ele>
        <time>2013-08-20T18:04:32Z</time>
      </trkpt>
      <trkpt lat="59.323183324247" lon="17.942048209226">
        <ele>4</ele>
        <time>2013-08-20T18:04:33Z</time>
      </trkpt>
      <trkpt lat="59.323306873453" lon="17.942049885606">
        <ele>4</ele>
        <time>2013-08-20T18:04:35Z</time>
      </trkpt>
      <trkpt lat="59.323493622185" lon="17.942045946113">
        <ele>4.4</ele>
        <time>2013-08-20T18:04:38Z</time>
      </trkpt>
      <trkpt lat="59.323558246634" lon="17.942049969425">
        <ele>4.8</ele>
        <time>2013-08-20T18:04:39Z</time>
      </trkpt>
      <trkpt lat="59.323620691789" lon="17.94205038852">
        <ele>5.2</ele>
        <time>2013-08-20T18:04:40Z</time>
      </trkpt>
      <trkpt lat="59.323686489704" lon="17.942047287217">
        <ele>5.6</ele>
        <time>2013-08-20T18:04:41Z</time>
      </trkpt>
      <trkpt lat="59.323749605411" lon="17.942044353552">
        <ele>6</ele>
        <time>2013-08-20T18:04:42Z</time>
      </trkpt>
      <trkpt lat="59.32417381337" lon="17.942055920574">
        <ele>6</ele>
        <time>2013-08-20T18:04:48Z</time>
      </trkpt>
      <trkpt lat="59.324602212279" lon="17.94200680264">
        <ele>6</ele>
        <time>2013-08-20T18:04:54Z</time>
      </trkpt>
      <trkpt lat="59.324946205455" lon="17.941934550662">
        <ele>6</ele>
        <time>2013-08-20T18:04:59Z</time>
      </trkpt>
      <trkpt lat="59.325005046393" lon="17.941878224294">
        <ele>6</ele>
        <time>2013-08-20T18:05:00Z</time>
      </trkpt>
      <trkpt lat="59.32507067667" lon="17.941677729246">
        <ele>6</ele>
        <time>2013-08-20T18:05:02Z</time>
      </trkpt>
      <trkpt lat="59.325078974751" lon="17.941541691009">
        <ele>6</ele>
        <time>2013-08-20T18:05:03Z</time>
      </trkpt>
      <trkpt lat="59.325103952813" lon="17.941420237278">
        <ele>6</ele>
        <time>2013-08-20T18:05:04Z</time>
      </trkpt>
      <trkpt lat="59.325139827345" lon="17.941301968669">
        <ele>6</ele>
        <time>2013-08-20T18:05:05Z</time>
      </trkpt>
      <trkpt lat="59.325309728458" lon="17.940843730196">
        <ele>6</ele>
        <time>2013-08-20T18:05:09Z</time>
      </trkpt>
      <trkpt lat="59.325352559967" lon="17.940725629225">
        <ele>6</ele>
        <time>2013-08-20T18:05:10Z</time>
      </trkpt>
      <trkpt lat="59.325445599057" lon="17.940500659029">
        <ele>6</ele>
        <time>2013-08-20T18:05:12Z</time>
      </trkpt>
      <trkpt lat="59.325586247339" lon="17.940168065237">
        <ele>6</ele>
        <time>2013-08-20T18:05:15Z</time>
      </trkpt>
      <trkpt lat="59.3257051865" lon="17.939829771753">
        <ele>6</ele>
        <time>2013-08-20T18:05:18Z</time>
      </trkpt>
      <trkpt lat="59.325728991096" lon="17.939703037425">
        <ele>6</ele>
        <time>2013-08-20T18:05:19Z</time>
      </trkpt>
      <trkpt lat="59.325761680506" lon="17.939319481681">
        <ele>6</ele>
        <time>2013-08-20T18:05:22Z</time>
      </trkpt>
      <trkpt lat="59.325784646912" lon="17.939191741525">
        <ele>6</ele>
        <time>2013-08-20T18:05:23Z</time>
      </trkpt>
      <trkpt lat="59.32593736513" lon="17.938899129396">
        <ele>6</ele>
        <time>2013-08-20T18:05:26Z</time>
      </trkpt>
      <trkpt lat="59.326074660652" lon="17.9387915058">
        <ele>6</ele>
        <time>2013-08-20T18:05:28Z</time>
      </trkpt>
      <trkpt lat="59.326142302585" lon="17.938752529965">
        <ele>6</ele>
        <time>2013-08-20T18:05:29Z</time>
      </trkpt>
      <trkpt lat="59.326211369441" lon="17.93872193603">
        <ele>6</ele>
        <time>2013-08-20T18:05:30Z</time>
      </trkpt>
      <trkpt lat="59.326607162759" lon="17.938436448516">
        <ele>6</ele>
        <time>2013-08-20T18:05:36Z</time>
      </trkpt>
      <trkpt lat="59.326858368302" lon="17.938204018429">
        <ele>6.4</ele>
        <time>2013-08-20T18:05:40Z</time>
      </trkpt>
      <trkpt lat="59.326920478181" lon="17.9381460995">
        <ele>6.8</ele>
        <time>2013-08-20T18:05:41Z</time>
      </trkpt>
      <trkpt lat="59.326979738214" lon="17.938082229422">
        <ele>7.2</ele>
        <time>2013-08-20T18:05:42Z</time>
      </trkpt>
      <trkpt lat="59.327040255532" lon="17.938015844774">
        <ele>7.6</ele>
        <time>2013-08-20T18:05:43Z</time>
      </trkpt>
      <trkpt lat="59.327098509737" lon="17.937953064343">
        <ele>8</ele>
        <time>2013-08-20T18:05:44Z</time>
      </trkpt>
      <trkpt lat="59.32733546605" lon="17.937693812176">
        <ele>8</ele>
        <time>2013-08-20T18:05:48Z</time>
      </trkpt>
      <trkpt lat="59.327671999335" lon="17.937236914807">
        <ele>8</ele>
        <time>2013-08-20T18:05:54Z</time>
      </trkpt>
      <trkpt lat="59.327938208479" lon="17.936660491544">
        <ele>8.6</ele>
        <time>2013-08-20T18:06:00Z</time>
      </trkpt>
      <trkpt lat="59.327974921201" lon="17.936564351151">
        <ele>9</ele>
        <time>2013-08-20T18:06:01Z</time>
      </trkpt>
      <trkpt lat="59.328004593127" lon="17.936469551862">
        <ele>9.4</ele>
        <time>2013-08-20T18:06:02Z</time>
      </trkpt>
      <trkpt lat="59.328030744655" lon="17.936374417297">
        <ele>9.8</ele>
        <time>2013-08-20T18:06:03Z</time>
      </trkpt>
      <trkpt lat="59.328058572563" lon="17.936275846153">
        <ele>10.2</ele>
        <time>2013-08-20T18:06:04Z</time>
      </trkpt>
      <trkpt lat="59.328087071023" lon="17.936175095715">
        <ele>10.2</ele>
        <time>2013-08-20T18:06:05Z</time>
      </trkpt>
      <trkpt lat="59.328147085427" lon="17.935972756649">
        <ele>10.6</ele>
        <time>2013-08-20T18:06:07Z</time>
      </trkpt>
      <trkpt lat="59.328172650222" lon="17.935873598772">
        <ele>11</ele>
        <time>2013-08-20T18:06:08Z</time>
      </trkpt>
      <trkpt lat="59.328196538637" lon="17.935779637673">
        <ele>11.4</ele>
        <time>2013-08-20T18:06:09Z</time>
      </trkpt>
      <trkpt lat="59.328221600518" lon="17.935685341298">
        <ele>11.8</ele>
        <time>2013-08-20T18:06:10Z</time>
      </trkpt>
      <trkpt lat="59.328244650743" lon="17.935583501213">
        <ele>12.2</ele>
        <time>2013-08-20T18:06:11Z</time>
      </trkpt>
      <trkpt lat="59.328264264389" lon="17.935475039427">
        <ele>12.2</ele>
        <time>2013-08-20T18:06:12Z</time>
      </trkpt>
      <trkpt lat="59.328339198575" lon="17.934994924195">
        <ele>12.2</ele>
        <time>2013-08-20T18:06:16Z</time>
      </trkpt>
      <trkpt lat="59.328479511581" lon="17.934119770016">
        <ele>12.2</ele>
        <time>2013-08-20T18:06:23Z</time>
      </trkpt>
      <trkpt lat="59.328593170145" lon="17.933434214415">
        <ele>12.2</ele>
        <time>2013-08-20T18:06:29Z</time>
      </trkpt>
      <trkpt lat="59.328732309685" lon="17.93262578016">
        <ele>12.2</ele>
        <time>2013-08-20T18:06:36Z</time>
      </trkpt>
      <trkpt lat="59.32883834072" lon="17.931893453557">
        <ele>12.2</ele>
        <time>2013-08-20T18:06:42Z</time>
      </trkpt>
      <trkpt lat="59.328893074527" lon="17.931541497576">
        <ele>12.2</ele>
        <time>2013-08-20T18:06:45Z</time>
      </trkpt>
      <trkpt lat="59.32891629239" lon="17.931420630578">
        <ele>12.6</ele>
        <time>2013-08-20T18:06:46Z</time>
      </trkpt>
      <trkpt lat="59.328938001511" lon="17.931298506295">
        <ele>13</ele>
        <time>2013-08-20T18:06:47Z</time>
      </trkpt>
      <trkpt lat="59.328957866614" lon="17.931172610157">
        <ele>13.4</ele>
        <time>2013-08-20T18:06:48Z</time>
      </trkpt>
      <trkpt lat="59.328978402269" lon="17.931042271612">
        <ele>14</ele>
        <time>2013-08-20T18:06:49Z</time>
      </trkpt>
      <trkpt lat="59.329001033399" lon="17.93091587256">
        <ele>14.4</ele>
        <time>2013-08-20T18:06:50Z</time>
      </trkpt>
      <trkpt lat="59.329021736692" lon="17.930788551499">
        <ele>14.4</ele>
        <time>2013-08-20T18:06:51Z</time>
      </trkpt>
      <trkpt lat="59.329041685614" lon="17.930654022004">
        <ele>14.4</ele>
        <time>2013-08-20T18:06:52Z</time>
      </trkpt>
      <trkpt lat="59.329094072489" lon="17.930276668866">
        <ele>14.4</ele>
        <time>2013-08-20T18:06:55Z</time>
      </trkpt>
      <trkpt lat="59.329132796867" lon="17.930041556571">
        <ele>14.4</ele>
        <time>2013-08-20T18:06:57Z</time>
      </trkpt>
      <trkpt lat="59.329213179288" lon="17.929868805612">
        <ele>14.4</ele>
        <time>2013-08-20T18:07:00Z</time>
      </trkpt>
      <trkpt lat="59.329227177061" lon="17.929853718192">
        <ele>14.4</ele>
        <time>2013-08-20T18:07:04Z</time>
      </trkpt>
      <trkpt lat="59.329254166779" lon="17.929786160078">
        <ele>14.4</ele>
        <time>2013-08-20T18:07:07Z</time>
      </trkpt>
      <trkpt lat="59.329246120155" lon="17.929727235321">
        <ele>14.4</ele>
        <time>2013-08-20T18:07:08Z</time>
      </trkpt>
      <trkpt lat="59.329274618615" lon="17.929448034232">
        <ele>14.4</ele>
        <time>2013-08-20T18:07:11Z</time>
      </trkpt>
      <trkpt lat="59.329289203121" lon="17.929342003197">
        <ele>14.4</ele>
        <time>2013-08-20T18:07:12Z</time>
      </trkpt>
      <trkpt lat="59.329391965215" lon="17.928737584388">
        <ele>14.4</ele>
        <time>2013-08-20T18:07:15Z</time>
      </trkpt>
      <trkpt lat="59.329394815061" lon="17.928627362403">
        <ele>14.4</ele>
        <time>2013-08-20T18:07:17Z</time>
      </trkpt>
      <trkpt lat="59.32933706377" lon="17.928420748568">
        <ele>14.4</ele>
        <time>2013-08-20T18:07:19Z</time>
      </trkpt>
      <trkpt lat="59.329226255052" lon="17.928142972402">
        <ele>14.4</ele>
        <time>2013-08-20T18:07:22Z</time>
      </trkpt>
      <trkpt lat="59.329264895611" lon="17.927751453853">
        <ele>14.4</ele>
        <time>2013-08-20T18:07:25Z</time>
      </trkpt>
      <trkpt lat="59.32938651698" lon="17.926959029027">
        <ele>14.4</ele>
        <time>2013-08-20T18:07:31Z</time>
      </trkpt>
      <trkpt lat="59.32943345562" lon="17.926713523176">
        <ele>14.4</ele>
        <time>2013-08-20T18:07:33Z</time>
      </trkpt>
      <trkpt lat="59.329479136975" lon="17.926436501381">
        <ele>14.4</ele>
        <time>2013-08-20T18:07:35Z</time>
      </trkpt>
      <trkpt lat="59.32950051082" lon="17.926284788991">
        <ele>14.8</ele>
        <time>2013-08-20T18:07:36Z</time>
      </trkpt>
      <trkpt lat="59.329524231597" lon="17.926140201216">
        <ele>15.8</ele>
        <time>2013-08-20T18:07:37Z</time>
      </trkpt>
      <trkpt lat="59.329547700917" lon="17.925991673948">
        <ele>16.2</ele>
        <time>2013-08-20T18:07:38Z</time>
      </trkpt>
      <trkpt lat="59.329569074762" lon="17.925842392309">
        <ele>16.6</ele>
        <time>2013-08-20T18:07:39Z</time>
      </trkpt>
      <trkpt lat="59.329635627048" lon="17.925384992026">
        <ele>16.6</ele>
        <time>2013-08-20T18:07:42Z</time>
      </trkpt>
      <trkpt lat="59.329748112146" lon="17.924575132848">
        <ele>16.6</ele>
        <time>2013-08-20T18:07:47Z</time>
      </trkpt>
      <trkpt lat="59.329768815439" lon="17.924215046424">
        <ele>16.6</ele>
        <time>2013-08-20T18:07:49Z</time>
      </trkpt>
      <trkpt lat="59.329765462679" lon="17.924024442018">
        <ele>16.2</ele>
        <time>2013-08-20T18:07:50Z</time>
      </trkpt>
      <trkpt lat="59.329761607005" lon="17.923832077413">
        <ele>15.6</ele>
        <time>2013-08-20T18:07:51Z</time>
      </trkpt>
      <trkpt lat="59.329757416055" lon="17.923624625388">
        <ele>15</ele>
        <time>2013-08-20T18:07:52Z</time>
      </trkpt>
      <trkpt lat="59.329755069123" lon="17.923420861399">
        <ele>14.4</ele>
        <time>2013-08-20T18:07:53Z</time>
      </trkpt>
      <trkpt lat="59.329746854861" lon="17.923210727166">
        <ele>13.6</ele>
        <time>2013-08-20T18:07:54Z</time>
      </trkpt>
      <trkpt lat="59.329737802409" lon="17.923000509114">
        <ele>13</ele>
        <time>2013-08-20T18:07:55Z</time>
      </trkpt>
      <trkpt lat="59.329734114373" lon="17.922799092057">
        <ele>12.2</ele>
        <time>2013-08-20T18:07:56Z</time>
      </trkpt>
      <trkpt lat="59.329737886228" lon="17.922610918402">
        <ele>11.6</ele>
        <time>2013-08-20T18:07:57Z</time>
      </trkpt>
      <trkpt lat="59.32975280601" lon="17.92242249329">
        <ele>11</ele>
        <time>2013-08-20T18:07:58Z</time>
      </trkpt>
      <trkpt lat="59.32978800999" lon="17.922251167254">
        <ele>10.2</ele>
        <time>2013-08-20T18:07:59Z</time>
      </trkpt>
      <trkpt lat="59.329849533136" lon="17.922097778484">
        <ele>9.6</ele>
        <time>2013-08-20T18:08:00Z</time>
      </trkpt>
      <trkpt lat="59.329922371847" lon="17.921986299214">
        <ele>9</ele>
        <time>2013-08-20T18:08:01Z</time>
      </trkpt>
      <trkpt lat="59.330002670449" lon="17.921878675618">
        <ele>7.6</ele>
        <time>2013-08-20T18:08:02Z</time>
      </trkpt>
      <trkpt lat="59.330085064526" lon="17.921779769198">
        <ele>7.2</ele>
        <time>2013-08-20T18:08:03Z</time>
      </trkpt>
      <trkpt lat="59.330167458603" lon="17.921685891918">
        <ele>6.6</ele>
        <time>2013-08-20T18:08:04Z</time>
      </trkpt>
      <trkpt lat="59.330254295087" lon="17.921592769009">
        <ele>6</ele>
        <time>2013-08-20T18:08:05Z</time>
      </trkpt>
      <trkpt lat="59.330336940621" lon="17.921480954463">
        <ele>5.4</ele>
        <time>2013-08-20T18:08:06Z</time>
      </trkpt>
      <trkpt lat="59.33041078516" lon="17.921352795212">
        <ele>4.8</ele>
        <time>2013-08-20T18:08:07Z</time>
      </trkpt>
      <trkpt lat="59.330465183691" lon="17.921193539112">
        <ele>4.2</ele>
        <time>2013-08-20T18:08:08Z</time>
      </trkpt>
      <trkpt lat="59.330492424866" lon="17.921025482017">
        <ele>3.8</ele>
        <time>2013-08-20T18:08:09Z</time>
      </trkpt>
      <trkpt lat="59.330494520341" lon="17.920839403837">
        <ele>3.2</ele>
        <time>2013-08-20T18:08:10Z</time>
      </trkpt>
      <trkpt lat="59.330482953319" lon="17.920643770291">
        <ele>2.4</ele>
        <time>2013-08-20T18:08:11Z</time>
      </trkpt>
      <trkpt lat="59.330468117356" lon="17.920452662971">
        <ele>1.8</ele>
        <time>2013-08-20T18:08:12Z</time>
      </trkpt>
      <trkpt lat="59.330460322189" lon="17.920263986402">
        <ele>1.2</ele>
        <time>2013-08-20T18:08:13Z</time>
      </trkpt>
      <trkpt lat="59.330467362985" lon="17.920097186592">
        <ele>0.4</ele>
        <time>2013-08-20T18:08:14Z</time>
      </trkpt>
      <trkpt lat="59.330482366586" lon="17.919954275197">
        <ele>0</ele>
        <time>2013-08-20T18:08:15Z</time>
      </trkpt>
      <trkpt lat="59.330510445951" lon="17.91984338266">
        <ele>0</ele>
        <time>2013-08-20T18:08:16Z</time>
      </trkpt>
      <trkpt lat="59.330538860592" lon="17.919771130682">
        <ele>0</ele>
        <time>2013-08-20T18:08:17Z</time>
      </trkpt>
      <trkpt lat="59.330561324084" lon="17.919724443499">
        <ele>0</ele>
        <time>2013-08-20T18:08:18Z</time>
      </trkpt>
      <trkpt lat="59.330569035432" lon="17.919687730777">
        <ele>0</ele>
        <time>2013-08-20T18:08:19Z</time>
      </trkpt>
      <trkpt lat="59.330575154219" lon="17.919672475719">
        <ele>0</ele>
        <time>2013-08-20T18:08:20Z</time>
      </trkpt>
      <trkpt lat="59.330771877412" lon="17.919303420662">
        <ele>0</ele>
        <time>2013-08-20T18:09:29Z</time>
      </trkpt>
      <trkpt lat="59.330804985917" lon="17.919224044069">
        <ele>0</ele>
        <time>2013-08-20T18:09:30Z</time>
      </trkpt>
      <trkpt lat="59.330874639506" lon="17.918959595124">
        <ele>0</ele>
        <time>2013-08-20T18:09:33Z</time>
      </trkpt>
      <trkpt lat="59.330903724699" lon="17.918789274916">
        <ele>0</ele>
        <time>2013-08-20T18:09:35Z</time>
      </trkpt>
      <trkpt lat="59.330871286746" lon="17.918588276954">
        <ele>0</ele>
        <time>2013-08-20T18:09:37Z</time>
      </trkpt>
      <trkpt lat="59.330794508542" lon="17.918418794936">
        <ele>0</ele>
        <time>2013-08-20T18:09:39Z</time>
      </trkpt>
      <trkpt lat="59.330747988997" lon="17.918360456912">
        <ele>0</ele>
        <time>2013-08-20T18:09:40Z</time>
      </trkpt>
      <trkpt lat="59.330596947159" lon="17.91816448809">
        <ele>0</ele>
        <time>2013-08-20T18:09:43Z</time>
      </trkpt>
      <trkpt lat="59.330497789282" lon="17.918012691881">
        <ele>0</ele>
        <time>2013-08-20T18:09:45Z</time>
      </trkpt>
      <trkpt lat="59.330452778479" lon="17.917940356084">
        <ele>0</ele>
        <time>2013-08-20T18:09:46Z</time>
      </trkpt>
      <trkpt lat="59.330405169287" lon="17.91786776883">
        <ele>0</ele>
        <time>2013-08-20T18:09:47Z</time>
      </trkpt>
      <trkpt lat="59.330361751045" lon="17.917795265395">
        <ele>0</ele>
        <time>2013-08-20T18:09:48Z</time>
      </trkpt>
      <trkpt lat="59.330319254812" lon="17.917718990105">
        <ele>0</ele>
        <time>2013-08-20T18:09:49Z</time>
      </trkpt>
      <trkpt lat="59.330280278977" lon="17.917641038435">
        <ele>0</ele>
        <time>2013-08-20T18:09:50Z</time>
      </trkpt>
      <trkpt lat="59.330068719821" lon="17.917142063928">
        <ele>0</ele>
        <time>2013-08-20T18:09:56Z</time>
      </trkpt>
      <trkpt lat="59.329819777391" lon="17.916530939599">
        <ele>0</ele>
        <time>2013-08-20T18:10:03Z</time>
      </trkpt>
      <trkpt lat="59.329605452208" lon="17.915990642325">
        <ele>0</ele>
        <time>2013-08-20T18:10:09Z</time>
      </trkpt>
      <trkpt lat="59.329513502765" lon="17.915954432517">
        <ele>0</ele>
        <time>2013-08-20T18:10:11Z</time>
      </trkpt>
      <trkpt lat="59.329416524182" lon="17.915751841994">
        <ele>0</ele>
        <time>2013-08-20T18:10:14Z</time>
      </trkpt>
      <trkpt lat="59.329354833398" lon="17.915575654456">
        <ele>0</ele>
        <time>2013-08-20T18:10:16Z</time>
      </trkpt>
      <trkpt lat="59.329238073531" lon="17.915177430387">
        <ele>0</ele>
        <time>2013-08-20T18:10:20Z</time>
      </trkpt>
      <trkpt lat="59.328992400042" lon="17.91428031563">
        <ele>0</ele>
        <time>2013-08-20T18:10:28Z</time>
      </trkpt>
      <trkpt lat="59.328743709069" lon="17.91333651369">
        <ele>0</ele>
        <time>2013-08-20T18:10:36Z</time>
      </trkpt>
      <trkpt lat="59.328512787724" lon="17.912470747239">
        <ele>0</ele>
        <time>2013-08-20T18:10:43Z</time>
      </trkpt>
      <trkpt lat="59.328235011558" lon="17.911450837647">
        <ele>0</ele>
        <time>2013-08-20T18:10:51Z</time>
      </trkpt>
      <trkpt lat="59.328199304664" lon="17.911323432767">
        <ele>0</ele>
        <time>2013-08-20T18:10:52Z</time>
      </trkpt>
      <trkpt lat="59.328128896704" lon="17.911061582211">
        <ele>0</ele>
        <time>2013-08-20T18:10:54Z</time>
      </trkpt>
      <trkpt lat="59.328092854534" lon="17.910927890906">
        <ele>0</ele>
        <time>2013-08-20T18:10:55Z</time>
      </trkpt>
      <trkpt lat="59.328053543423" lon="17.910787410262">
        <ele>0</ele>
        <time>2013-08-20T18:10:56Z</time>
      </trkpt>
      <trkpt lat="59.328016411606" lon="17.910652796948">
        <ele>0</ele>
        <time>2013-08-20T18:10:57Z</time>
      </trkpt>
      <trkpt lat="59.32797835778" lon="17.910518435091">
        <ele>0</ele>
        <time>2013-08-20T18:10:58Z</time>
      </trkpt>
      <trkpt lat="59.327905938164" lon="17.910251471576">
        <ele>0</ele>
        <time>2013-08-20T18:11:00Z</time>
      </trkpt>
      <trkpt lat="59.327870650365" lon="17.910118115547">
        <ele>0</ele>
        <time>2013-08-20T18:11:01Z</time>
      </trkpt>
      <trkpt lat="59.327834356738" lon="17.909984508061">
        <ele>0</ele>
        <time>2013-08-20T18:11:02Z</time>
      </trkpt>
      <trkpt lat="59.327797476378" lon="17.90985131967">
        <ele>0</ele>
        <time>2013-08-20T18:11:03Z</time>
      </trkpt>
      <trkpt lat="59.327759841647" lon="17.909720059116">
        <ele>0</ele>
        <time>2013-08-20T18:11:04Z</time>
      </trkpt>
      <trkpt lat="59.327726733142" lon="17.909598270109">
        <ele>0</ele>
        <time>2013-08-20T18:11:05Z</time>
      </trkpt>
      <trkpt lat="59.327659175028" lon="17.909352009887">
        <ele>0</ele>
        <time>2013-08-20T18:11:07Z</time>
      </trkpt>
      <trkpt lat="59.327444346931" lon="17.90857224173">
        <ele>0</ele>
        <time>2013-08-20T18:11:13Z</time>
      </trkpt>
      <trkpt lat="59.327249551575" lon="17.9078622948">
        <ele>0</ele>
        <time>2013-08-20T18:11:18Z</time>
      </trkpt>
      <trkpt lat="59.327209486093" lon="17.907712929342">
        <ele>0</ele>
        <time>2013-08-20T18:11:19Z</time>
      </trkpt>
      <trkpt lat="59.327171599905" lon="17.907574460354">
        <ele>0</ele>
        <time>2013-08-20T18:11:20Z</time>
      </trkpt>
      <trkpt lat="59.327130780052" lon="17.907426100724">
        <ele>0</ele>
        <time>2013-08-20T18:11:21Z</time>
      </trkpt>
      <trkpt lat="59.32709071457" lon="17.907267766633">
        <ele>0</ele>
        <time>2013-08-20T18:11:22Z</time>
      </trkpt>
      <trkpt lat="59.327049894717" lon="17.907117060071">
        <ele>0</ele>
        <time>2013-08-20T18:11:23Z</time>
      </trkpt>
      <trkpt lat="59.327009661597" lon="17.906965096224">
        <ele>0</ele>
        <time>2013-08-20T18:11:24Z</time>
      </trkpt>
      <trkpt lat="59.326968590287" lon="17.906811539816">
        <ele>0</ele>
        <time>2013-08-20T18:11:25Z</time>
      </trkpt>
      <trkpt lat="59.326926177873" lon="17.906657648132">
        <ele>0</ele>
        <time>2013-08-20T18:11:26Z</time>
      </trkpt>
      <trkpt lat="59.326884100735" lon="17.906498056756">
        <ele>0</ele>
        <time>2013-08-20T18:11:27Z</time>
      </trkpt>
      <trkpt lat="59.326839928122" lon="17.906337375733">
        <ele>0</ele>
        <time>2013-08-20T18:11:28Z</time>
      </trkpt>
      <trkpt lat="59.326795923147" lon="17.906176191796">
        <ele>0</ele>
        <time>2013-08-20T18:11:29Z</time>
      </trkpt>
      <trkpt lat="59.326750828525" lon="17.906015929868">
        <ele>0</ele>
        <time>2013-08-20T18:11:30Z</time>
      </trkpt>
      <trkpt lat="59.326615209383" lon="17.905523074148">
        <ele>0</ele>
        <time>2013-08-20T18:11:33Z</time>
      </trkpt>
      <trkpt lat="59.326568857476" lon="17.905353173035">
        <ele>0</ele>
        <time>2013-08-20T18:11:34Z</time>
      </trkpt>
      <trkpt lat="59.326522002655" lon="17.905178997153">
        <ele>0</ele>
        <time>2013-08-20T18:11:35Z</time>
      </trkpt>
      <trkpt lat="59.326479003508" lon="17.90501663975">
        <ele>0</ele>
        <time>2013-08-20T18:11:36Z</time>
      </trkpt>
      <trkpt lat="59.326436674913" lon="17.904858138021">
        <ele>0</ele>
        <time>2013-08-20T18:11:37Z</time>
      </trkpt>
      <trkpt lat="59.326272222035" lon="17.904253803031">
        <ele>0</ele>
        <time>2013-08-20T18:11:41Z</time>
      </trkpt>
      <trkpt lat="59.326156048901" lon="17.903808556503">
        <ele>0</ele>
        <time>2013-08-20T18:11:44Z</time>
      </trkpt>
      <trkpt lat="59.32612092874" lon="17.903663549633">
        <ele>0</ele>
        <time>2013-08-20T18:11:45Z</time>
      </trkpt>
      <trkpt lat="59.326093687565" lon="17.903515022365">
        <ele>0</ele>
        <time>2013-08-20T18:11:46Z</time>
      </trkpt>
      <trkpt lat="59.326068793322" lon="17.903366998011">
        <ele>0</ele>
        <time>2013-08-20T18:11:47Z</time>
      </trkpt>
      <trkpt lat="59.326030739496" lon="17.903231127412">
        <ele>0</ele>
        <time>2013-08-20T18:11:48Z</time>
      </trkpt>
      <trkpt lat="59.325826137317" lon="17.902609944803">
        <ele>0</ele>
        <time>2013-08-20T18:11:53Z</time>
      </trkpt>
      <trkpt lat="59.32565740967" lon="17.901962107752">
        <ele>0</ele>
        <time>2013-08-20T18:11:58Z</time>
      </trkpt>
    </trkseg>
  </trk>
</gpx>